<?xml version="1.0" encoding="UTF-8" standalone="no" ?>
<gpx xmlns="http://www.topografix.com/GPX/1/1" xmlns:xsi="http://www.w3.org/2001/XMLSchema-instance" xsi:schemaLocation="http://www.topografix.com/GPX/1/1 http://www.topografix.com/GPX/1/1/gpx.xsd" version="1.1" creator="VisuGPX - https://www.visugpx.com">
  <metadata>
    <name>Pic Saint-Loup</name>
    <desc><![CDATA[Pitite ballade de fin septembre entre frères.]]></desc>
  </metadata>
  <trk>
    <name><![CDATA[pic st loup]]></name>
    <desc><![CDATA[]]></desc>
    <trkseg>
      <trkpt lat="43.77042" lon="3.79307">
        <ele>351</ele>
        <time>2016-09-29T08:07:48Z</time>
      </trkpt>
      <trkpt lat="43.77044" lon="3.79301">
        <ele>348</ele>
        <time>2016-09-29T08:11:38Z</time>
      </trkpt>
      <trkpt lat="43.77043" lon="3.79295">
        <ele>348</ele>
        <time>2016-09-29T08:11:52Z</time>
      </trkpt>
      <trkpt lat="43.77045" lon="3.79289">
        <ele>351</ele>
        <time>2016-09-29T08:11:59Z</time>
      </trkpt>
      <trkpt lat="43.77053" lon="3.79279">
        <ele>350</ele>
        <time>2016-09-29T08:12:10Z</time>
      </trkpt>
      <trkpt lat="43.77057" lon="3.79266">
        <ele>353</ele>
        <time>2016-09-29T08:12:20Z</time>
      </trkpt>
      <trkpt lat="43.77061" lon="3.79254">
        <ele>351</ele>
        <time>2016-09-29T08:12:28Z</time>
      </trkpt>
      <trkpt lat="43.77065" lon="3.79239">
        <ele>349</ele>
        <time>2016-09-29T08:12:38Z</time>
      </trkpt>
      <trkpt lat="43.77063" lon="3.79231">
        <ele>351</ele>
        <time>2016-09-29T08:12:45Z</time>
      </trkpt>
      <trkpt lat="43.77063" lon="3.7922">
        <ele>353</ele>
        <time>2016-09-29T08:12:52Z</time>
      </trkpt>
      <trkpt lat="43.77061" lon="3.79206">
        <ele>351</ele>
        <time>2016-09-29T08:13:02Z</time>
      </trkpt>
      <trkpt lat="43.77058" lon="3.79193">
        <ele>352</ele>
        <time>2016-09-29T08:13:12Z</time>
      </trkpt>
      <trkpt lat="43.77062" lon="3.79187">
        <ele>354</ele>
        <time>2016-09-29T08:14:32Z</time>
      </trkpt>
      <trkpt lat="43.77068" lon="3.79179">
        <ele>356</ele>
        <time>2016-09-29T08:14:48Z</time>
      </trkpt>
      <trkpt lat="43.77071" lon="3.79173">
        <ele>354</ele>
        <time>2016-09-29T08:14:56Z</time>
      </trkpt>
      <trkpt lat="43.77074" lon="3.79168">
        <ele>349</ele>
        <time>2016-09-29T08:16:05Z</time>
      </trkpt>
      <trkpt lat="43.77082" lon="3.7916">
        <ele>349</ele>
        <time>2016-09-29T08:16:16Z</time>
      </trkpt>
      <trkpt lat="43.77087" lon="3.79158">
        <ele>350</ele>
        <time>2016-09-29T08:16:24Z</time>
      </trkpt>
      <trkpt lat="43.77091" lon="3.79153">
        <ele>346</ele>
        <time>2016-09-29T08:16:31Z</time>
      </trkpt>
      <trkpt lat="43.77095" lon="3.79148">
        <ele>348</ele>
        <time>2016-09-29T08:16:38Z</time>
      </trkpt>
      <trkpt lat="43.77097" lon="3.79141">
        <ele>350</ele>
        <time>2016-09-29T08:16:47Z</time>
      </trkpt>
      <trkpt lat="43.771" lon="3.79135">
        <ele>351</ele>
        <time>2016-09-29T08:16:55Z</time>
      </trkpt>
      <trkpt lat="43.77105" lon="3.79124">
        <ele>350</ele>
        <time>2016-09-29T08:17:04Z</time>
      </trkpt>
      <trkpt lat="43.77114" lon="3.79125">
        <ele>348</ele>
        <time>2016-09-29T08:17:15Z</time>
      </trkpt>
      <trkpt lat="43.77119" lon="3.79129">
        <ele>351</ele>
        <time>2016-09-29T08:17:23Z</time>
      </trkpt>
      <trkpt lat="43.77123" lon="3.7913">
        <ele>351</ele>
        <time>2016-09-29T08:17:31Z</time>
      </trkpt>
      <trkpt lat="43.77128" lon="3.79132">
        <ele>351</ele>
        <time>2016-09-29T08:17:37Z</time>
      </trkpt>
      <trkpt lat="43.77137" lon="3.79135">
        <ele>351</ele>
        <time>2016-09-29T08:17:47Z</time>
      </trkpt>
      <trkpt lat="43.77143" lon="3.79136">
        <ele>351</ele>
        <time>2016-09-29T08:17:55Z</time>
      </trkpt>
      <trkpt lat="43.77148" lon="3.79139">
        <ele>356</ele>
        <time>2016-09-29T08:18:08Z</time>
      </trkpt>
      <trkpt lat="43.77158" lon="3.79145">
        <ele>356</ele>
        <time>2016-09-29T08:18:19Z</time>
      </trkpt>
      <trkpt lat="43.77168" lon="3.79155">
        <ele>360</ele>
        <time>2016-09-29T08:18:31Z</time>
      </trkpt>
      <trkpt lat="43.77173" lon="3.79159">
        <ele>361</ele>
        <time>2016-09-29T08:18:41Z</time>
      </trkpt>
      <trkpt lat="43.77181" lon="3.79165">
        <ele>362</ele>
        <time>2016-09-29T08:18:59Z</time>
      </trkpt>
      <trkpt lat="43.77181" lon="3.79171">
        <ele>366</ele>
        <time>2016-09-29T08:19:07Z</time>
      </trkpt>
      <trkpt lat="43.7718" lon="3.79185">
        <ele>370</ele>
        <time>2016-09-29T08:19:17Z</time>
      </trkpt>
      <trkpt lat="43.77187" lon="3.79192">
        <ele>370</ele>
        <time>2016-09-29T08:19:26Z</time>
      </trkpt>
      <trkpt lat="43.77191" lon="3.79197">
        <ele>371</ele>
        <time>2016-09-29T08:19:36Z</time>
      </trkpt>
      <trkpt lat="43.77193" lon="3.79203">
        <ele>371</ele>
        <time>2016-09-29T08:19:45Z</time>
      </trkpt>
      <trkpt lat="43.77196" lon="3.79212">
        <ele>373</ele>
        <time>2016-09-29T08:19:55Z</time>
      </trkpt>
      <trkpt lat="43.77198" lon="3.79218">
        <ele>374</ele>
        <time>2016-09-29T08:20:08Z</time>
      </trkpt>
      <trkpt lat="43.77201" lon="3.79224">
        <ele>375</ele>
        <time>2016-09-29T08:20:16Z</time>
      </trkpt>
      <trkpt lat="43.77206" lon="3.79225">
        <ele>377</ele>
        <time>2016-09-29T08:20:26Z</time>
      </trkpt>
      <trkpt lat="43.77209" lon="3.79222">
        <ele>379</ele>
        <time>2016-09-29T08:20:45Z</time>
      </trkpt>
      <trkpt lat="43.77215" lon="3.79217">
        <ele>378</ele>
        <time>2016-09-29T08:20:52Z</time>
      </trkpt>
      <trkpt lat="43.7722" lon="3.79218">
        <ele>378</ele>
        <time>2016-09-29T08:20:58Z</time>
      </trkpt>
      <trkpt lat="43.77229" lon="3.79218">
        <ele>377</ele>
        <time>2016-09-29T08:21:15Z</time>
      </trkpt>
      <trkpt lat="43.77238" lon="3.79219">
        <ele>374</ele>
        <time>2016-09-29T08:21:23Z</time>
      </trkpt>
      <trkpt lat="43.77246" lon="3.79227">
        <ele>376</ele>
        <time>2016-09-29T08:21:31Z</time>
      </trkpt>
      <trkpt lat="43.77253" lon="3.79235">
        <ele>386</ele>
        <time>2016-09-29T08:21:58Z</time>
      </trkpt>
      <trkpt lat="43.77258" lon="3.79237">
        <ele>383</ele>
        <time>2016-09-29T08:22:04Z</time>
      </trkpt>
      <trkpt lat="43.77262" lon="3.79242">
        <ele>384</ele>
        <time>2016-09-29T08:22:12Z</time>
      </trkpt>
      <trkpt lat="43.77265" lon="3.79247">
        <ele>385</ele>
        <time>2016-09-29T08:22:25Z</time>
      </trkpt>
      <trkpt lat="43.77269" lon="3.79252">
        <ele>388</ele>
        <time>2016-09-29T08:22:33Z</time>
      </trkpt>
      <trkpt lat="43.77276" lon="3.79261">
        <ele>386</ele>
        <time>2016-09-29T08:22:44Z</time>
      </trkpt>
      <trkpt lat="43.77281" lon="3.79268">
        <ele>391</ele>
        <time>2016-09-29T08:22:54Z</time>
      </trkpt>
      <trkpt lat="43.77286" lon="3.7927">
        <ele>393</ele>
        <time>2016-09-29T08:23:00Z</time>
      </trkpt>
      <trkpt lat="43.77288" lon="3.79276">
        <ele>392</ele>
        <time>2016-09-29T08:23:08Z</time>
      </trkpt>
      <trkpt lat="43.77291" lon="3.79282">
        <ele>396</ele>
        <time>2016-09-29T08:23:14Z</time>
      </trkpt>
      <trkpt lat="43.77293" lon="3.79288">
        <ele>396</ele>
        <time>2016-09-29T08:23:24Z</time>
      </trkpt>
      <trkpt lat="43.77295" lon="3.79294">
        <ele>399</ele>
        <time>2016-09-29T08:23:31Z</time>
      </trkpt>
      <trkpt lat="43.77297" lon="3.79301">
        <ele>400</ele>
        <time>2016-09-29T08:23:42Z</time>
      </trkpt>
      <trkpt lat="43.77301" lon="3.79311">
        <ele>400</ele>
        <time>2016-09-29T08:24:00Z</time>
      </trkpt>
      <trkpt lat="43.773" lon="3.79318">
        <ele>397</ele>
        <time>2016-09-29T08:24:08Z</time>
      </trkpt>
      <trkpt lat="43.77304" lon="3.79323">
        <ele>403</ele>
        <time>2016-09-29T08:24:29Z</time>
      </trkpt>
      <trkpt lat="43.77307" lon="3.79328">
        <ele>405</ele>
        <time>2016-09-29T08:24:35Z</time>
      </trkpt>
      <trkpt lat="43.77304" lon="3.7934">
        <ele>407</ele>
        <time>2016-09-29T08:24:47Z</time>
      </trkpt>
      <trkpt lat="43.77301" lon="3.79346">
        <ele>408</ele>
        <time>2016-09-29T08:24:54Z</time>
      </trkpt>
      <trkpt lat="43.77304" lon="3.79352">
        <ele>410</ele>
        <time>2016-09-29T08:25:04Z</time>
      </trkpt>
      <trkpt lat="43.77308" lon="3.79357">
        <ele>411</ele>
        <time>2016-09-29T08:25:13Z</time>
      </trkpt>
      <trkpt lat="43.77308" lon="3.79363">
        <ele>412</ele>
        <time>2016-09-29T08:25:23Z</time>
      </trkpt>
      <trkpt lat="43.77305" lon="3.7937">
        <ele>413</ele>
        <time>2016-09-29T08:25:34Z</time>
      </trkpt>
      <trkpt lat="43.77308" lon="3.79375">
        <ele>415</ele>
        <time>2016-09-29T08:25:43Z</time>
      </trkpt>
      <trkpt lat="43.77309" lon="3.79387">
        <ele>419</ele>
        <time>2016-09-29T08:26:00Z</time>
      </trkpt>
      <trkpt lat="43.77307" lon="3.79393">
        <ele>422</ele>
        <time>2016-09-29T08:26:06Z</time>
      </trkpt>
      <trkpt lat="43.77305" lon="3.79401">
        <ele>411</ele>
        <time>2016-09-29T08:26:13Z</time>
      </trkpt>
      <trkpt lat="43.77308" lon="3.79407">
        <ele>424</ele>
        <time>2016-09-29T08:26:22Z</time>
      </trkpt>
      <trkpt lat="43.77313" lon="3.79411">
        <ele>426</ele>
        <time>2016-09-29T08:27:37Z</time>
      </trkpt>
      <trkpt lat="43.77322" lon="3.79413">
        <ele>423</ele>
        <time>2016-09-29T08:27:46Z</time>
      </trkpt>
      <trkpt lat="43.77328" lon="3.79415">
        <ele>422</ele>
        <time>2016-09-29T08:27:56Z</time>
      </trkpt>
      <trkpt lat="43.77332" lon="3.79419">
        <ele>421</ele>
        <time>2016-09-29T08:28:04Z</time>
      </trkpt>
      <trkpt lat="43.77336" lon="3.79423">
        <ele>424</ele>
        <time>2016-09-29T08:28:14Z</time>
      </trkpt>
      <trkpt lat="43.77338" lon="3.79429">
        <ele>428</ele>
        <time>2016-09-29T08:28:24Z</time>
      </trkpt>
      <trkpt lat="43.77341" lon="3.79444">
        <ele>433</ele>
        <time>2016-09-29T08:28:39Z</time>
      </trkpt>
      <trkpt lat="43.77345" lon="3.79449">
        <ele>435</ele>
        <time>2016-09-29T08:28:46Z</time>
      </trkpt>
      <trkpt lat="43.7735" lon="3.79455">
        <ele>433</ele>
        <time>2016-09-29T08:28:59Z</time>
      </trkpt>
      <trkpt lat="43.77354" lon="3.79459">
        <ele>435</ele>
        <time>2016-09-29T08:29:06Z</time>
      </trkpt>
      <trkpt lat="43.77357" lon="3.79472">
        <ele>440</ele>
        <time>2016-09-29T08:29:19Z</time>
      </trkpt>
      <trkpt lat="43.77358" lon="3.79478">
        <ele>440</ele>
        <time>2016-09-29T08:29:26Z</time>
      </trkpt>
      <trkpt lat="43.77358" lon="3.79484">
        <ele>439</ele>
        <time>2016-09-29T08:29:34Z</time>
      </trkpt>
      <trkpt lat="43.77361" lon="3.79491">
        <ele>439</ele>
        <time>2016-09-29T08:29:40Z</time>
      </trkpt>
      <trkpt lat="43.77362" lon="3.79497">
        <ele>441</ele>
        <time>2016-09-29T08:29:59Z</time>
      </trkpt>
      <trkpt lat="43.77364" lon="3.79503">
        <ele>440</ele>
        <time>2016-09-29T08:30:08Z</time>
      </trkpt>
      <trkpt lat="43.77372" lon="3.79513">
        <ele>441</ele>
        <time>2016-09-29T08:30:19Z</time>
      </trkpt>
      <trkpt lat="43.77374" lon="3.7952">
        <ele>439</ele>
        <time>2016-09-29T08:30:25Z</time>
      </trkpt>
      <trkpt lat="43.77379" lon="3.79531">
        <ele>439</ele>
        <time>2016-09-29T08:30:34Z</time>
      </trkpt>
      <trkpt lat="43.77384" lon="3.79543">
        <ele>441</ele>
        <time>2016-09-29T08:30:45Z</time>
      </trkpt>
      <trkpt lat="43.77387" lon="3.79551">
        <ele>441</ele>
        <time>2016-09-29T08:30:55Z</time>
      </trkpt>
      <trkpt lat="43.77392" lon="3.79562">
        <ele>445</ele>
        <time>2016-09-29T08:31:05Z</time>
      </trkpt>
      <trkpt lat="43.77393" lon="3.79568">
        <ele>443</ele>
        <time>2016-09-29T08:31:11Z</time>
      </trkpt>
      <trkpt lat="43.77399" lon="3.7958">
        <ele>443</ele>
        <time>2016-09-29T08:31:22Z</time>
      </trkpt>
      <trkpt lat="43.77407" lon="3.79591">
        <ele>444</ele>
        <time>2016-09-29T08:31:34Z</time>
      </trkpt>
      <trkpt lat="43.77415" lon="3.79596">
        <ele>434</ele>
        <time>2016-09-29T08:31:46Z</time>
      </trkpt>
      <trkpt lat="43.7742" lon="3.79603">
        <ele>442</ele>
        <time>2016-09-29T08:31:54Z</time>
      </trkpt>
      <trkpt lat="43.77425" lon="3.79606">
        <ele>446</ele>
        <time>2016-09-29T08:32:02Z</time>
      </trkpt>
      <trkpt lat="43.77428" lon="3.79613">
        <ele>448</ele>
        <time>2016-09-29T08:32:09Z</time>
      </trkpt>
      <trkpt lat="43.7743" lon="3.79619">
        <ele>449</ele>
        <time>2016-09-29T08:32:16Z</time>
      </trkpt>
      <trkpt lat="43.77432" lon="3.79625">
        <ele>454</ele>
        <time>2016-09-29T08:32:23Z</time>
      </trkpt>
      <trkpt lat="43.77436" lon="3.79631">
        <ele>454</ele>
        <time>2016-09-29T08:32:30Z</time>
      </trkpt>
      <trkpt lat="43.77439" lon="3.79636">
        <ele>454</ele>
        <time>2016-09-29T08:32:40Z</time>
      </trkpt>
      <trkpt lat="43.77439" lon="3.79642">
        <ele>455</ele>
        <time>2016-09-29T08:32:47Z</time>
      </trkpt>
      <trkpt lat="43.77441" lon="3.79657">
        <ele>458</ele>
        <time>2016-09-29T08:32:59Z</time>
      </trkpt>
      <trkpt lat="43.77445" lon="3.79668">
        <ele>456</ele>
        <time>2016-09-29T08:33:11Z</time>
      </trkpt>
      <trkpt lat="43.77448" lon="3.79682">
        <ele>458</ele>
        <time>2016-09-29T08:33:20Z</time>
      </trkpt>
      <trkpt lat="43.7745" lon="3.79689">
        <ele>455</ele>
        <time>2016-09-29T08:33:27Z</time>
      </trkpt>
      <trkpt lat="43.77452" lon="3.79696">
        <ele>458</ele>
        <time>2016-09-29T08:33:33Z</time>
      </trkpt>
      <trkpt lat="43.77454" lon="3.79703">
        <ele>459</ele>
        <time>2016-09-29T08:33:43Z</time>
      </trkpt>
      <trkpt lat="43.77454" lon="3.79717">
        <ele>459</ele>
        <time>2016-09-29T08:33:53Z</time>
      </trkpt>
      <trkpt lat="43.77457" lon="3.79723">
        <ele>460</ele>
        <time>2016-09-29T08:33:59Z</time>
      </trkpt>
      <trkpt lat="43.77457" lon="3.7973">
        <ele>460</ele>
        <time>2016-09-29T08:34:05Z</time>
      </trkpt>
      <trkpt lat="43.77459" lon="3.79739">
        <ele>458</ele>
        <time>2016-09-29T08:34:12Z</time>
      </trkpt>
      <trkpt lat="43.77459" lon="3.79752">
        <ele>460</ele>
        <time>2016-09-29T08:34:23Z</time>
      </trkpt>
      <trkpt lat="43.7746" lon="3.79767">
        <ele>459</ele>
        <time>2016-09-29T08:34:34Z</time>
      </trkpt>
      <trkpt lat="43.77465" lon="3.79779">
        <ele>460</ele>
        <time>2016-09-29T08:34:44Z</time>
      </trkpt>
      <trkpt lat="43.77467" lon="3.79789">
        <ele>458</ele>
        <time>2016-09-29T08:34:53Z</time>
      </trkpt>
      <trkpt lat="43.77471" lon="3.79802">
        <ele>460</ele>
        <time>2016-09-29T08:35:02Z</time>
      </trkpt>
      <trkpt lat="43.77473" lon="3.79807">
        <ele>462</ele>
        <time>2016-09-29T08:35:08Z</time>
      </trkpt>
      <trkpt lat="43.77478" lon="3.79819">
        <ele>460</ele>
        <time>2016-09-29T08:35:17Z</time>
      </trkpt>
      <trkpt lat="43.77478" lon="3.79826">
        <ele>458</ele>
        <time>2016-09-29T08:35:25Z</time>
      </trkpt>
      <trkpt lat="43.77486" lon="3.79835">
        <ele>456</ele>
        <time>2016-09-29T08:35:34Z</time>
      </trkpt>
      <trkpt lat="43.77489" lon="3.79847">
        <ele>456</ele>
        <time>2016-09-29T08:35:43Z</time>
      </trkpt>
      <trkpt lat="43.77494" lon="3.79857">
        <ele>454</ele>
        <time>2016-09-29T08:35:57Z</time>
      </trkpt>
      <trkpt lat="43.77499" lon="3.79869">
        <ele>454</ele>
        <time>2016-09-29T08:36:06Z</time>
      </trkpt>
      <trkpt lat="43.77502" lon="3.79881">
        <ele>456</ele>
        <time>2016-09-29T08:36:16Z</time>
      </trkpt>
      <trkpt lat="43.77504" lon="3.79888">
        <ele>456</ele>
        <time>2016-09-29T08:36:22Z</time>
      </trkpt>
      <trkpt lat="43.77509" lon="3.79899">
        <ele>458</ele>
        <time>2016-09-29T08:36:30Z</time>
      </trkpt>
      <trkpt lat="43.77513" lon="3.79903">
        <ele>459</ele>
        <time>2016-09-29T08:36:38Z</time>
      </trkpt>
      <trkpt lat="43.77514" lon="3.79913">
        <ele>457</ele>
        <time>2016-09-29T08:36:44Z</time>
      </trkpt>
      <trkpt lat="43.77515" lon="3.79922">
        <ele>454</ele>
        <time>2016-09-29T08:36:52Z</time>
      </trkpt>
      <trkpt lat="43.77514" lon="3.79936">
        <ele>452</ele>
        <time>2016-09-29T08:37:02Z</time>
      </trkpt>
      <trkpt lat="43.77515" lon="3.79943">
        <ele>454</ele>
        <time>2016-09-29T08:37:08Z</time>
      </trkpt>
      <trkpt lat="43.77515" lon="3.7995">
        <ele>455</ele>
        <time>2016-09-29T08:37:15Z</time>
      </trkpt>
      <trkpt lat="43.77514" lon="3.79963">
        <ele>452</ele>
        <time>2016-09-29T08:37:24Z</time>
      </trkpt>
      <trkpt lat="43.77517" lon="3.79975">
        <ele>452</ele>
        <time>2016-09-29T08:37:35Z</time>
      </trkpt>
      <trkpt lat="43.7752" lon="3.79981">
        <ele>456</ele>
        <time>2016-09-29T08:37:41Z</time>
      </trkpt>
      <trkpt lat="43.77518" lon="3.7999">
        <ele>457</ele>
        <time>2016-09-29T08:37:48Z</time>
      </trkpt>
      <trkpt lat="43.77521" lon="3.80003">
        <ele>458</ele>
        <time>2016-09-29T08:37:57Z</time>
      </trkpt>
      <trkpt lat="43.77523" lon="3.8001">
        <ele>460</ele>
        <time>2016-09-29T08:38:05Z</time>
      </trkpt>
      <trkpt lat="43.77527" lon="3.80016">
        <ele>461</ele>
        <time>2016-09-29T08:38:15Z</time>
      </trkpt>
      <trkpt lat="43.77528" lon="3.80031">
        <ele>463</ele>
        <time>2016-09-29T08:38:25Z</time>
      </trkpt>
      <trkpt lat="43.7753" lon="3.80038">
        <ele>463</ele>
        <time>2016-09-29T08:38:32Z</time>
      </trkpt>
      <trkpt lat="43.77533" lon="3.80044">
        <ele>461</ele>
        <time>2016-09-29T08:38:40Z</time>
      </trkpt>
      <trkpt lat="43.77537" lon="3.80054">
        <ele>463</ele>
        <time>2016-09-29T08:38:48Z</time>
      </trkpt>
      <trkpt lat="43.77538" lon="3.80067">
        <ele>464</ele>
        <time>2016-09-29T08:39:00Z</time>
      </trkpt>
      <trkpt lat="43.77541" lon="3.8008">
        <ele>467</ele>
        <time>2016-09-29T08:39:09Z</time>
      </trkpt>
      <trkpt lat="43.77543" lon="3.80092">
        <ele>469</ele>
        <time>2016-09-29T08:39:19Z</time>
      </trkpt>
      <trkpt lat="43.77547" lon="3.80097">
        <ele>465</ele>
        <time>2016-09-29T08:39:36Z</time>
      </trkpt>
      <trkpt lat="43.77546" lon="3.80109">
        <ele>472</ele>
        <time>2016-09-29T08:39:59Z</time>
      </trkpt>
      <trkpt lat="43.77548" lon="3.80116">
        <ele>472</ele>
        <time>2016-09-29T08:40:12Z</time>
      </trkpt>
      <trkpt lat="43.77551" lon="3.80131">
        <ele>475</ele>
        <time>2016-09-29T08:40:22Z</time>
      </trkpt>
      <trkpt lat="43.77553" lon="3.80143">
        <ele>479</ele>
        <time>2016-09-29T08:40:33Z</time>
      </trkpt>
      <trkpt lat="43.77552" lon="3.8015">
        <ele>477</ele>
        <time>2016-09-29T08:40:39Z</time>
      </trkpt>
      <trkpt lat="43.77555" lon="3.80155">
        <ele>477</ele>
        <time>2016-09-29T08:40:45Z</time>
      </trkpt>
      <trkpt lat="43.77558" lon="3.80165">
        <ele>474</ele>
        <time>2016-09-29T08:40:57Z</time>
      </trkpt>
      <trkpt lat="43.77559" lon="3.80177">
        <ele>476</ele>
        <time>2016-09-29T08:41:09Z</time>
      </trkpt>
      <trkpt lat="43.77559" lon="3.80184">
        <ele>474</ele>
        <time>2016-09-29T08:41:19Z</time>
      </trkpt>
      <trkpt lat="43.7756" lon="3.8019">
        <ele>478</ele>
        <time>2016-09-29T08:41:29Z</time>
      </trkpt>
      <trkpt lat="43.7756" lon="3.80204">
        <ele>479</ele>
        <time>2016-09-29T08:41:38Z</time>
      </trkpt>
      <trkpt lat="43.77562" lon="3.80213">
        <ele>481</ele>
        <time>2016-09-29T08:41:48Z</time>
      </trkpt>
      <trkpt lat="43.77566" lon="3.8022">
        <ele>479</ele>
        <time>2016-09-29T08:41:58Z</time>
      </trkpt>
      <trkpt lat="43.77566" lon="3.80226">
        <ele>478</ele>
        <time>2016-09-29T08:42:05Z</time>
      </trkpt>
      <trkpt lat="43.77568" lon="3.80239">
        <ele>482</ele>
        <time>2016-09-29T08:42:16Z</time>
      </trkpt>
      <trkpt lat="43.77566" lon="3.80246">
        <ele>479</ele>
        <time>2016-09-29T08:42:25Z</time>
      </trkpt>
      <trkpt lat="43.77562" lon="3.80258">
        <ele>480</ele>
        <time>2016-09-29T08:42:33Z</time>
      </trkpt>
      <trkpt lat="43.77561" lon="3.80265">
        <ele>483</ele>
        <time>2016-09-29T08:42:39Z</time>
      </trkpt>
      <trkpt lat="43.77563" lon="3.80275">
        <ele>480</ele>
        <time>2016-09-29T08:42:48Z</time>
      </trkpt>
      <trkpt lat="43.77566" lon="3.80288">
        <ele>478</ele>
        <time>2016-09-29T08:43:01Z</time>
      </trkpt>
      <trkpt lat="43.77567" lon="3.80302">
        <ele>477</ele>
        <time>2016-09-29T08:43:12Z</time>
      </trkpt>
      <trkpt lat="43.77567" lon="3.8031">
        <ele>477</ele>
        <time>2016-09-29T08:43:18Z</time>
      </trkpt>
      <trkpt lat="43.77571" lon="3.80325">
        <ele>476</ele>
        <time>2016-09-29T08:43:28Z</time>
      </trkpt>
      <trkpt lat="43.77573" lon="3.80332">
        <ele>475</ele>
        <time>2016-09-29T08:43:34Z</time>
      </trkpt>
      <trkpt lat="43.77573" lon="3.80347">
        <ele>476</ele>
        <time>2016-09-29T08:43:44Z</time>
      </trkpt>
      <trkpt lat="43.77575" lon="3.80356">
        <ele>475</ele>
        <time>2016-09-29T08:43:52Z</time>
      </trkpt>
      <trkpt lat="43.77575" lon="3.80363">
        <ele>475</ele>
        <time>2016-09-29T08:43:59Z</time>
      </trkpt>
      <trkpt lat="43.77576" lon="3.8037">
        <ele>473</ele>
        <time>2016-09-29T08:44:06Z</time>
      </trkpt>
      <trkpt lat="43.77576" lon="3.80377">
        <ele>469</ele>
        <time>2016-09-29T08:44:13Z</time>
      </trkpt>
      <trkpt lat="43.77575" lon="3.80384">
        <ele>468</ele>
        <time>2016-09-29T08:44:25Z</time>
      </trkpt>
      <trkpt lat="43.77578" lon="3.80397">
        <ele>474</ele>
        <time>2016-09-29T08:44:36Z</time>
      </trkpt>
      <trkpt lat="43.77577" lon="3.80405">
        <ele>478</ele>
        <time>2016-09-29T08:44:43Z</time>
      </trkpt>
      <trkpt lat="43.77579" lon="3.80416">
        <ele>482</ele>
        <time>2016-09-29T08:44:55Z</time>
      </trkpt>
      <trkpt lat="43.77581" lon="3.8043">
        <ele>482</ele>
        <time>2016-09-29T08:45:07Z</time>
      </trkpt>
      <trkpt lat="43.77578" lon="3.80437">
        <ele>486</ele>
        <time>2016-09-29T08:45:14Z</time>
      </trkpt>
      <trkpt lat="43.77581" lon="3.8045">
        <ele>484</ele>
        <time>2016-09-29T08:45:25Z</time>
      </trkpt>
      <trkpt lat="43.77581" lon="3.80457">
        <ele>488</ele>
        <time>2016-09-29T08:45:32Z</time>
      </trkpt>
      <trkpt lat="43.77577" lon="3.8047">
        <ele>486</ele>
        <time>2016-09-29T08:45:41Z</time>
      </trkpt>
      <trkpt lat="43.77579" lon="3.80476">
        <ele>487</ele>
        <time>2016-09-29T08:45:47Z</time>
      </trkpt>
      <trkpt lat="43.7758" lon="3.80484">
        <ele>486</ele>
        <time>2016-09-29T08:45:56Z</time>
      </trkpt>
      <trkpt lat="43.77584" lon="3.80498">
        <ele>487</ele>
        <time>2016-09-29T08:46:05Z</time>
      </trkpt>
      <trkpt lat="43.77583" lon="3.80505">
        <ele>489</ele>
        <time>2016-09-29T08:46:12Z</time>
      </trkpt>
      <trkpt lat="43.77582" lon="3.80518">
        <ele>486</ele>
        <time>2016-09-29T08:46:22Z</time>
      </trkpt>
      <trkpt lat="43.77586" lon="3.8053">
        <ele>490</ele>
        <time>2016-09-29T08:46:35Z</time>
      </trkpt>
      <trkpt lat="43.77587" lon="3.80536">
        <ele>490</ele>
        <time>2016-09-29T08:46:41Z</time>
      </trkpt>
      <trkpt lat="43.77588" lon="3.80542">
        <ele>491</ele>
        <time>2016-09-29T08:46:47Z</time>
      </trkpt>
      <trkpt lat="43.77592" lon="3.80548">
        <ele>495</ele>
        <time>2016-09-29T08:46:57Z</time>
      </trkpt>
      <trkpt lat="43.77593" lon="3.80556">
        <ele>496</ele>
        <time>2016-09-29T08:47:06Z</time>
      </trkpt>
      <trkpt lat="43.77591" lon="3.80569">
        <ele>497</ele>
        <time>2016-09-29T08:47:15Z</time>
      </trkpt>
      <trkpt lat="43.77591" lon="3.80583">
        <ele>498</ele>
        <time>2016-09-29T08:47:26Z</time>
      </trkpt>
      <trkpt lat="43.77593" lon="3.80596">
        <ele>500</ele>
        <time>2016-09-29T08:47:35Z</time>
      </trkpt>
      <trkpt lat="43.77592" lon="3.80603">
        <ele>499</ele>
        <time>2016-09-29T08:47:41Z</time>
      </trkpt>
      <trkpt lat="43.77592" lon="3.80612">
        <ele>500</ele>
        <time>2016-09-29T08:47:48Z</time>
      </trkpt>
      <trkpt lat="43.7759" lon="3.80627">
        <ele>499</ele>
        <time>2016-09-29T08:48:01Z</time>
      </trkpt>
      <trkpt lat="43.77592" lon="3.8064">
        <ele>500</ele>
        <time>2016-09-29T08:48:08Z</time>
      </trkpt>
      <trkpt lat="43.77593" lon="3.80646">
        <ele>501</ele>
        <time>2016-09-29T08:48:20Z</time>
      </trkpt>
      <trkpt lat="43.77593" lon="3.80653">
        <ele>500</ele>
        <time>2016-09-29T08:48:27Z</time>
      </trkpt>
      <trkpt lat="43.77594" lon="3.8067">
        <ele>497</ele>
        <time>2016-09-29T08:48:38Z</time>
      </trkpt>
      <trkpt lat="43.77598" lon="3.80682">
        <ele>499</ele>
        <time>2016-09-29T08:48:47Z</time>
      </trkpt>
      <trkpt lat="43.77605" lon="3.80692">
        <ele>499</ele>
        <time>2016-09-29T08:48:58Z</time>
      </trkpt>
      <trkpt lat="43.77609" lon="3.80705">
        <ele>502</ele>
        <time>2016-09-29T08:49:06Z</time>
      </trkpt>
      <trkpt lat="43.77613" lon="3.80711">
        <ele>502</ele>
        <time>2016-09-29T08:49:13Z</time>
      </trkpt>
      <trkpt lat="43.77617" lon="3.80715">
        <ele>500</ele>
        <time>2016-09-29T08:49:19Z</time>
      </trkpt>
      <trkpt lat="43.77619" lon="3.80722">
        <ele>498</ele>
        <time>2016-09-29T08:49:47Z</time>
      </trkpt>
      <trkpt lat="43.77621" lon="3.8073">
        <ele>498</ele>
        <time>2016-09-29T08:49:55Z</time>
      </trkpt>
      <trkpt lat="43.77623" lon="3.80738">
        <ele>499</ele>
        <time>2016-09-29T08:50:02Z</time>
      </trkpt>
      <trkpt lat="43.7763" lon="3.80747">
        <ele>500</ele>
        <time>2016-09-29T08:50:08Z</time>
      </trkpt>
      <trkpt lat="43.77633" lon="3.80762">
        <ele>504</ele>
        <time>2016-09-29T08:50:27Z</time>
      </trkpt>
      <trkpt lat="43.7764" lon="3.80782">
        <ele>506</ele>
        <time>2016-09-29T08:50:36Z</time>
      </trkpt>
      <trkpt lat="43.77645" lon="3.80794">
        <ele>508</ele>
        <time>2016-09-29T08:50:46Z</time>
      </trkpt>
      <trkpt lat="43.77649" lon="3.80801">
        <ele>506</ele>
        <time>2016-09-29T08:50:53Z</time>
      </trkpt>
      <trkpt lat="43.77654" lon="3.80806">
        <ele>504</ele>
        <time>2016-09-29T08:50:59Z</time>
      </trkpt>
      <trkpt lat="43.77657" lon="3.80819">
        <ele>503</ele>
        <time>2016-09-29T08:51:08Z</time>
      </trkpt>
      <trkpt lat="43.77655" lon="3.80825">
        <ele>503</ele>
        <time>2016-09-29T08:51:14Z</time>
      </trkpt>
      <trkpt lat="43.77659" lon="3.80837">
        <ele>499</ele>
        <time>2016-09-29T08:51:24Z</time>
      </trkpt>
      <trkpt lat="43.7766" lon="3.80843">
        <ele>501</ele>
        <time>2016-09-29T08:51:30Z</time>
      </trkpt>
      <trkpt lat="43.77663" lon="3.80856">
        <ele>503</ele>
        <time>2016-09-29T08:51:40Z</time>
      </trkpt>
      <trkpt lat="43.77664" lon="3.80863">
        <ele>500</ele>
        <time>2016-09-29T08:51:47Z</time>
      </trkpt>
      <trkpt lat="43.77665" lon="3.8087">
        <ele>504</ele>
        <time>2016-09-29T08:51:58Z</time>
      </trkpt>
      <trkpt lat="43.77668" lon="3.80877">
        <ele>504</ele>
        <time>2016-09-29T08:52:05Z</time>
      </trkpt>
      <trkpt lat="43.77668" lon="3.80891">
        <ele>511</ele>
        <time>2016-09-29T08:52:15Z</time>
      </trkpt>
      <trkpt lat="43.77668" lon="3.80897">
        <ele>515</ele>
        <time>2016-09-29T08:52:22Z</time>
      </trkpt>
      <trkpt lat="43.77672" lon="3.80912">
        <ele>518</ele>
        <time>2016-09-29T08:52:46Z</time>
      </trkpt>
      <trkpt lat="43.77675" lon="3.8092">
        <ele>519</ele>
        <time>2016-09-29T08:52:54Z</time>
      </trkpt>
      <trkpt lat="43.77679" lon="3.80933">
        <ele>517</ele>
        <time>2016-09-29T08:53:05Z</time>
      </trkpt>
      <trkpt lat="43.77681" lon="3.80939">
        <ele>518</ele>
        <time>2016-09-29T08:53:15Z</time>
      </trkpt>
      <trkpt lat="43.77681" lon="3.80946">
        <ele>519</ele>
        <time>2016-09-29T08:53:23Z</time>
      </trkpt>
      <trkpt lat="43.77681" lon="3.80953">
        <ele>521</ele>
        <time>2016-09-29T08:53:29Z</time>
      </trkpt>
      <trkpt lat="43.7768" lon="3.8096">
        <ele>503</ele>
        <time>2016-09-29T08:53:37Z</time>
      </trkpt>
      <trkpt lat="43.7768" lon="3.80967">
        <ele>521</ele>
        <time>2016-09-29T08:53:48Z</time>
      </trkpt>
      <trkpt lat="43.77681" lon="3.80973">
        <ele>519</ele>
        <time>2016-09-29T08:53:59Z</time>
      </trkpt>
      <trkpt lat="43.77683" lon="3.80978">
        <ele>519</ele>
        <time>2016-09-29T08:54:05Z</time>
      </trkpt>
      <trkpt lat="43.77683" lon="3.80986">
        <ele>526</ele>
        <time>2016-09-29T08:54:13Z</time>
      </trkpt>
      <trkpt lat="43.77685" lon="3.80999">
        <ele>525</ele>
        <time>2016-09-29T08:54:23Z</time>
      </trkpt>
      <trkpt lat="43.77686" lon="3.81007">
        <ele>526</ele>
        <time>2016-09-29T08:54:29Z</time>
      </trkpt>
      <trkpt lat="43.77687" lon="3.81014">
        <ele>529</ele>
        <time>2016-09-29T08:54:36Z</time>
      </trkpt>
      <trkpt lat="43.77691" lon="3.81026">
        <ele>530</ele>
        <time>2016-09-29T08:54:46Z</time>
      </trkpt>
      <trkpt lat="43.77687" lon="3.81032">
        <ele>529</ele>
        <time>2016-09-29T08:54:55Z</time>
      </trkpt>
      <trkpt lat="43.77685" lon="3.81038">
        <ele>531</ele>
        <time>2016-09-29T08:55:02Z</time>
      </trkpt>
      <trkpt lat="43.77681" lon="3.81043">
        <ele>530</ele>
        <time>2016-09-29T08:55:11Z</time>
      </trkpt>
      <trkpt lat="43.77681" lon="3.8105">
        <ele>531</ele>
        <time>2016-09-29T08:55:17Z</time>
      </trkpt>
      <trkpt lat="43.77677" lon="3.81055">
        <ele>529</ele>
        <time>2016-09-29T08:55:23Z</time>
      </trkpt>
      <trkpt lat="43.77678" lon="3.81068">
        <ele>534</ele>
        <time>2016-09-29T08:55:35Z</time>
      </trkpt>
      <trkpt lat="43.77673" lon="3.81079">
        <ele>541</ele>
        <time>2016-09-29T08:55:45Z</time>
      </trkpt>
      <trkpt lat="43.77671" lon="3.81089">
        <ele>540</ele>
        <time>2016-09-29T08:55:56Z</time>
      </trkpt>
      <trkpt lat="43.77668" lon="3.81096">
        <ele>542</ele>
        <time>2016-09-29T08:56:02Z</time>
      </trkpt>
      <trkpt lat="43.7767" lon="3.81103">
        <ele>545</ele>
        <time>2016-09-29T08:56:11Z</time>
      </trkpt>
      <trkpt lat="43.77665" lon="3.81108">
        <ele>544</ele>
        <time>2016-09-29T08:56:17Z</time>
      </trkpt>
      <trkpt lat="43.77663" lon="3.81114">
        <ele>546</ele>
        <time>2016-09-29T08:56:25Z</time>
      </trkpt>
      <trkpt lat="43.77665" lon="3.8112">
        <ele>548</ele>
        <time>2016-09-29T08:56:31Z</time>
      </trkpt>
      <trkpt lat="43.77663" lon="3.81127">
        <ele>549</ele>
        <time>2016-09-29T08:56:42Z</time>
      </trkpt>
      <trkpt lat="43.77665" lon="3.81134">
        <ele>550</ele>
        <time>2016-09-29T08:56:48Z</time>
      </trkpt>
      <trkpt lat="43.77668" lon="3.81141">
        <ele>549</ele>
        <time>2016-09-29T08:56:58Z</time>
      </trkpt>
      <trkpt lat="43.77672" lon="3.81155">
        <ele>555</ele>
        <time>2016-09-29T08:57:08Z</time>
      </trkpt>
      <trkpt lat="43.77672" lon="3.81166">
        <ele>554</ele>
        <time>2016-09-29T08:57:20Z</time>
      </trkpt>
      <trkpt lat="43.77668" lon="3.81179">
        <ele>552</ele>
        <time>2016-09-29T08:57:32Z</time>
      </trkpt>
      <trkpt lat="43.77669" lon="3.81186">
        <ele>553</ele>
        <time>2016-09-29T08:57:38Z</time>
      </trkpt>
      <trkpt lat="43.77672" lon="3.81191">
        <ele>555</ele>
        <time>2016-09-29T08:57:44Z</time>
      </trkpt>
      <trkpt lat="43.77673" lon="3.81201">
        <ele>559</ele>
        <time>2016-09-29T08:57:54Z</time>
      </trkpt>
      <trkpt lat="43.77677" lon="3.81205">
        <ele>559</ele>
        <time>2016-09-29T08:58:01Z</time>
      </trkpt>
      <trkpt lat="43.77676" lon="3.81212">
        <ele>562</ele>
        <time>2016-09-29T08:58:07Z</time>
      </trkpt>
      <trkpt lat="43.77679" lon="3.81218">
        <ele>561</ele>
        <time>2016-09-29T08:58:13Z</time>
      </trkpt>
      <trkpt lat="43.7768" lon="3.81224">
        <ele>560</ele>
        <time>2016-09-29T08:58:20Z</time>
      </trkpt>
      <trkpt lat="43.77681" lon="3.81231">
        <ele>562</ele>
        <time>2016-09-29T08:58:29Z</time>
      </trkpt>
      <trkpt lat="43.77685" lon="3.81238">
        <ele>564</ele>
        <time>2016-09-29T08:58:35Z</time>
      </trkpt>
      <trkpt lat="43.77684" lon="3.81245">
        <ele>562</ele>
        <time>2016-09-29T08:58:45Z</time>
      </trkpt>
      <trkpt lat="43.77681" lon="3.81254">
        <ele>564</ele>
        <time>2016-09-29T09:00:15Z</time>
      </trkpt>
      <trkpt lat="43.77677" lon="3.81267">
        <ele>570</ele>
        <time>2016-09-29T09:00:26Z</time>
      </trkpt>
      <trkpt lat="43.77675" lon="3.81274">
        <ele>571</ele>
        <time>2016-09-29T09:00:32Z</time>
      </trkpt>
      <trkpt lat="43.77672" lon="3.81281">
        <ele>571</ele>
        <time>2016-09-29T09:00:39Z</time>
      </trkpt>
      <trkpt lat="43.77671" lon="3.81287">
        <ele>569</ele>
        <time>2016-09-29T09:00:47Z</time>
      </trkpt>
      <trkpt lat="43.77669" lon="3.81295">
        <ele>571</ele>
        <time>2016-09-29T09:00:56Z</time>
      </trkpt>
      <trkpt lat="43.77669" lon="3.81307">
        <ele>570</ele>
        <time>2016-09-29T09:01:04Z</time>
      </trkpt>
      <trkpt lat="43.77669" lon="3.81314">
        <ele>571</ele>
        <time>2016-09-29T09:01:14Z</time>
      </trkpt>
      <trkpt lat="43.77668" lon="3.8132">
        <ele>573</ele>
        <time>2016-09-29T09:01:25Z</time>
      </trkpt>
      <trkpt lat="43.77668" lon="3.81332">
        <ele>573</ele>
        <time>2016-09-29T09:01:35Z</time>
      </trkpt>
      <trkpt lat="43.77669" lon="3.81344">
        <ele>575</ele>
        <time>2016-09-29T09:01:49Z</time>
      </trkpt>
      <trkpt lat="43.77674" lon="3.81356">
        <ele>571</ele>
        <time>2016-09-29T09:02:00Z</time>
      </trkpt>
      <trkpt lat="43.77678" lon="3.81362">
        <ele>575</ele>
        <time>2016-09-29T09:02:17Z</time>
      </trkpt>
      <trkpt lat="43.77687" lon="3.81369">
        <ele>583</ele>
        <time>2016-09-29T09:02:32Z</time>
      </trkpt>
      <trkpt lat="43.77692" lon="3.81367">
        <ele>582</ele>
        <time>2016-09-29T09:02:39Z</time>
      </trkpt>
      <trkpt lat="43.777" lon="3.81367">
        <ele>576</ele>
        <time>2016-09-29T09:02:55Z</time>
      </trkpt>
      <trkpt lat="43.77708" lon="3.81376">
        <ele>581</ele>
        <time>2016-09-29T09:03:14Z</time>
      </trkpt>
      <trkpt lat="43.77712" lon="3.81372">
        <ele>587</ele>
        <time>2016-09-29T09:03:29Z</time>
      </trkpt>
      <trkpt lat="43.77717" lon="3.81374">
        <ele>591</ele>
        <time>2016-09-29T09:03:46Z</time>
      </trkpt>
      <trkpt lat="43.77721" lon="3.81369">
        <ele>594</ele>
        <time>2016-09-29T09:03:55Z</time>
      </trkpt>
      <trkpt lat="43.77725" lon="3.81365">
        <ele>595</ele>
        <time>2016-09-29T09:04:07Z</time>
      </trkpt>
      <trkpt lat="43.7773" lon="3.81363">
        <ele>604</ele>
        <time>2016-09-29T09:04:43Z</time>
      </trkpt>
      <trkpt lat="43.77737" lon="3.81369">
        <ele>601</ele>
        <time>2016-09-29T09:05:05Z</time>
      </trkpt>
      <trkpt lat="43.77739" lon="3.81376">
        <ele>600</ele>
        <time>2016-09-29T09:05:15Z</time>
      </trkpt>
      <trkpt lat="43.77744" lon="3.81376">
        <ele>596</ele>
        <time>2016-09-29T09:05:27Z</time>
      </trkpt>
      <trkpt lat="43.77747" lon="3.81371">
        <ele>606</ele>
        <time>2016-09-29T09:05:46Z</time>
      </trkpt>
      <trkpt lat="43.77749" lon="3.81363">
        <ele>607</ele>
        <time>2016-09-29T09:05:56Z</time>
      </trkpt>
      <trkpt lat="43.77749" lon="3.81356">
        <ele>607</ele>
        <time>2016-09-29T09:06:06Z</time>
      </trkpt>
      <trkpt lat="43.77747" lon="3.81349">
        <ele>609</ele>
        <time>2016-09-29T09:06:13Z</time>
      </trkpt>
      <trkpt lat="43.7775" lon="3.81336">
        <ele>606</ele>
        <time>2016-09-29T09:06:22Z</time>
      </trkpt>
      <trkpt lat="43.77751" lon="3.81328">
        <ele>601</ele>
        <time>2016-09-29T09:06:31Z</time>
      </trkpt>
      <trkpt lat="43.77753" lon="3.81322">
        <ele>601</ele>
        <time>2016-09-29T09:06:37Z</time>
      </trkpt>
      <trkpt lat="43.77755" lon="3.81314">
        <ele>603</ele>
        <time>2016-09-29T09:06:43Z</time>
      </trkpt>
      <trkpt lat="43.77757" lon="3.81304">
        <ele>582</ele>
        <time>2016-09-29T09:06:54Z</time>
      </trkpt>
      <trkpt lat="43.77759" lon="3.81299">
        <ele>600</ele>
        <time>2016-09-29T09:07:01Z</time>
      </trkpt>
      <trkpt lat="43.77768" lon="3.813">
        <ele>609</ele>
        <time>2016-09-29T09:07:22Z</time>
      </trkpt>
      <trkpt lat="43.7777" lon="3.81293">
        <ele>606</ele>
        <time>2016-09-29T09:07:34Z</time>
      </trkpt>
      <trkpt lat="43.77771" lon="3.81287">
        <ele>614</ele>
        <time>2016-09-29T09:07:48Z</time>
      </trkpt>
      <trkpt lat="43.77776" lon="3.81277">
        <ele>618</ele>
        <time>2016-09-29T09:08:04Z</time>
      </trkpt>
      <trkpt lat="43.77779" lon="3.81264">
        <ele>618</ele>
        <time>2016-09-29T09:08:16Z</time>
      </trkpt>
      <trkpt lat="43.77782" lon="3.81258">
        <ele>619</ele>
        <time>2016-09-29T09:08:24Z</time>
      </trkpt>
      <trkpt lat="43.77783" lon="3.81252">
        <ele>619</ele>
        <time>2016-09-29T09:08:31Z</time>
      </trkpt>
      <trkpt lat="43.77789" lon="3.81246">
        <ele>620</ele>
        <time>2016-09-29T09:09:02Z</time>
      </trkpt>
      <trkpt lat="43.77792" lon="3.8124">
        <ele>625</ele>
        <time>2016-09-29T09:09:18Z</time>
      </trkpt>
      <trkpt lat="43.77794" lon="3.81234">
        <ele>627</ele>
        <time>2016-09-29T09:09:25Z</time>
      </trkpt>
      <trkpt lat="43.77794" lon="3.81227">
        <ele>621</ele>
        <time>2016-09-29T09:09:36Z</time>
      </trkpt>
      <trkpt lat="43.77793" lon="3.81221">
        <ele>627</ele>
        <time>2016-09-29T09:10:31Z</time>
      </trkpt>
      <trkpt lat="43.77798" lon="3.81223">
        <ele>631</ele>
        <time>2016-09-29T09:10:45Z</time>
      </trkpt>
      <trkpt lat="43.77804" lon="3.81232">
        <ele>628</ele>
        <time>2016-09-29T09:10:57Z</time>
      </trkpt>
      <trkpt lat="43.77806" lon="3.81238">
        <ele>632</ele>
        <time>2016-09-29T09:11:03Z</time>
      </trkpt>
      <trkpt lat="43.77808" lon="3.81244">
        <ele>634</ele>
        <time>2016-09-29T09:11:11Z</time>
      </trkpt>
      <trkpt lat="43.7781" lon="3.8125">
        <ele>634</ele>
        <time>2016-09-29T09:11:17Z</time>
      </trkpt>
      <trkpt lat="43.77814" lon="3.81247">
        <ele>637</ele>
        <time>2016-09-29T09:11:39Z</time>
      </trkpt>
      <trkpt lat="43.77816" lon="3.81236">
        <ele>641</ele>
        <time>2016-09-29T09:12:07Z</time>
      </trkpt>
      <trkpt lat="43.77821" lon="3.81232">
        <ele>642</ele>
        <time>2016-09-29T09:12:23Z</time>
      </trkpt>
      <trkpt lat="43.77826" lon="3.81232">
        <ele>646</ele>
        <time>2016-09-29T09:12:37Z</time>
      </trkpt>
      <trkpt lat="43.77829" lon="3.81226">
        <ele>649</ele>
        <time>2016-09-29T09:13:08Z</time>
      </trkpt>
      <trkpt lat="43.77833" lon="3.81229">
        <ele>653</ele>
        <time>2016-09-29T09:13:19Z</time>
      </trkpt>
      <trkpt lat="43.77838" lon="3.81233">
        <ele>651</ele>
        <time>2016-09-29T09:13:26Z</time>
      </trkpt>
      <trkpt lat="43.77841" lon="3.81238">
        <ele>656</ele>
        <time>2016-09-29T09:13:38Z</time>
      </trkpt>
      <trkpt lat="43.77847" lon="3.81229">
        <ele>649</ele>
        <time>2016-09-29T09:14:09Z</time>
      </trkpt>
      <trkpt lat="43.77847" lon="3.81223">
        <ele>656</ele>
        <time>2016-09-29T09:14:31Z</time>
      </trkpt>
      <trkpt lat="43.77848" lon="3.81216">
        <ele>575</ele>
        <time>2016-09-29T09:14:41Z</time>
      </trkpt>
      <trkpt lat="43.77854" lon="3.8121">
        <ele>653</ele>
        <time>2016-09-29T09:14:59Z</time>
      </trkpt>
      <trkpt lat="43.77853" lon="3.81202">
        <ele>671</ele>
        <time>2016-09-29T09:16:21Z</time>
      </trkpt>
      <trkpt lat="43.77851" lon="3.81196">
        <ele>675</ele>
        <time>2016-09-29T09:16:27Z</time>
      </trkpt>
      <trkpt lat="43.7785" lon="3.81182">
        <ele>673</ele>
        <time>2016-09-29T09:16:37Z</time>
      </trkpt>
      <trkpt lat="43.77848" lon="3.81175">
        <ele>676</ele>
        <time>2016-09-29T09:16:45Z</time>
      </trkpt>
      <trkpt lat="43.77849" lon="3.81164">
        <ele>676</ele>
        <time>2016-09-29T09:16:55Z</time>
      </trkpt>
      <trkpt lat="43.7785" lon="3.81158">
        <ele>670</ele>
        <time>2016-09-29T09:17:08Z</time>
      </trkpt>
      <trkpt lat="43.77854" lon="3.81154">
        <ele>670</ele>
        <time>2016-09-29T09:17:32Z</time>
      </trkpt>
      <trkpt lat="43.77859" lon="3.81154">
        <ele>673</ele>
        <time>2016-09-29T09:17:42Z</time>
      </trkpt>
      <trkpt lat="43.77864" lon="3.81149">
        <ele>678</ele>
        <time>2016-09-29T09:18:24Z</time>
      </trkpt>
      <trkpt lat="43.77868" lon="3.81151">
        <ele>679</ele>
        <time>2016-09-29T09:18:32Z</time>
      </trkpt>
      <trkpt lat="43.77873" lon="3.81148">
        <ele>678</ele>
        <time>2016-09-29T09:18:44Z</time>
      </trkpt>
      <trkpt lat="43.77879" lon="3.81154">
        <ele>683</ele>
        <time>2016-09-29T09:18:57Z</time>
      </trkpt>
      <trkpt lat="43.7788" lon="3.81146">
        <ele>684</ele>
        <time>2016-09-29T09:19:15Z</time>
      </trkpt>
      <trkpt lat="43.77886" lon="3.81146">
        <ele>683</ele>
        <time>2016-09-29T09:19:24Z</time>
      </trkpt>
      <trkpt lat="43.77889" lon="3.8114">
        <ele>693</ele>
        <time>2016-09-29T09:20:55Z</time>
      </trkpt>
      <trkpt lat="43.77891" lon="3.81133">
        <ele>694</ele>
        <time>2016-09-29T09:21:08Z</time>
      </trkpt>
      <trkpt lat="43.7789" lon="3.81126">
        <ele>698</ele>
        <time>2016-09-29T09:21:26Z</time>
      </trkpt>
      <trkpt lat="43.77889" lon="3.81119">
        <ele>701</ele>
        <time>2016-09-29T09:21:39Z</time>
      </trkpt>
      <trkpt lat="43.77888" lon="3.8111">
        <ele>707</ele>
        <time>2016-09-29T09:22:49Z</time>
      </trkpt>
      <trkpt lat="43.77889" lon="3.81122">
        <ele>705</ele>
        <time>2016-09-29T09:36:48Z</time>
      </trkpt>
      <trkpt lat="43.77892" lon="3.81127">
        <ele>703</ele>
        <time>2016-09-29T09:37:01Z</time>
      </trkpt>
      <trkpt lat="43.77896" lon="3.81131">
        <ele>702</ele>
        <time>2016-09-29T09:37:22Z</time>
      </trkpt>
      <trkpt lat="43.77896" lon="3.81138">
        <ele>705</ele>
        <time>2016-09-29T09:37:38Z</time>
      </trkpt>
      <trkpt lat="43.77897" lon="3.81149">
        <ele>706</ele>
        <time>2016-09-29T09:37:48Z</time>
      </trkpt>
      <trkpt lat="43.77897" lon="3.81142">
        <ele>704</ele>
        <time>2016-09-29T09:38:24Z</time>
      </trkpt>
      <trkpt lat="43.779" lon="3.81147">
        <ele>705</ele>
        <time>2016-09-29T09:38:44Z</time>
      </trkpt>
      <trkpt lat="43.77901" lon="3.81155">
        <ele>698</ele>
        <time>2016-09-29T09:39:42Z</time>
      </trkpt>
      <trkpt lat="43.77903" lon="3.81162">
        <ele>700</ele>
        <time>2016-09-29T09:39:48Z</time>
      </trkpt>
      <trkpt lat="43.77905" lon="3.81169">
        <ele>697</ele>
        <time>2016-09-29T09:39:56Z</time>
      </trkpt>
      <trkpt lat="43.77905" lon="3.81175">
        <ele>702</ele>
        <time>2016-09-29T09:40:05Z</time>
      </trkpt>
      <trkpt lat="43.77906" lon="3.81182">
        <ele>705</ele>
        <time>2016-09-29T09:42:28Z</time>
      </trkpt>
      <trkpt lat="43.77909" lon="3.81196">
        <ele>705</ele>
        <time>2016-09-29T09:42:41Z</time>
      </trkpt>
      <trkpt lat="43.77909" lon="3.81203">
        <ele>704</ele>
        <time>2016-09-29T09:42:47Z</time>
      </trkpt>
      <trkpt lat="43.77911" lon="3.81212">
        <ele>705</ele>
        <time>2016-09-29T09:42:55Z</time>
      </trkpt>
      <trkpt lat="43.77912" lon="3.81218">
        <ele>707</ele>
        <time>2016-09-29T09:43:17Z</time>
      </trkpt>
      <trkpt lat="43.77907" lon="3.81222">
        <ele>708</ele>
        <time>2016-09-29T09:43:24Z</time>
      </trkpt>
      <trkpt lat="43.77903" lon="3.81228">
        <ele>707</ele>
        <time>2016-09-29T09:43:30Z</time>
      </trkpt>
      <trkpt lat="43.77906" lon="3.81235">
        <ele>710</ele>
        <time>2016-09-29T09:43:42Z</time>
      </trkpt>
      <trkpt lat="43.77909" lon="3.81243">
        <ele>710</ele>
        <time>2016-09-29T09:43:48Z</time>
      </trkpt>
      <trkpt lat="43.77905" lon="3.81249">
        <ele>710</ele>
        <time>2016-09-29T09:44:02Z</time>
      </trkpt>
      <trkpt lat="43.77907" lon="3.81255">
        <ele>710</ele>
        <time>2016-09-29T09:44:22Z</time>
      </trkpt>
      <trkpt lat="43.77904" lon="3.81259">
        <ele>707</ele>
        <time>2016-09-29T09:44:39Z</time>
      </trkpt>
      <trkpt lat="43.7791" lon="3.81257">
        <ele>710</ele>
        <time>2016-09-29T10:16:24Z</time>
      </trkpt>
      <trkpt lat="43.77903" lon="3.81263">
        <ele>705</ele>
        <time>2016-09-29T10:17:08Z</time>
      </trkpt>
      <trkpt lat="43.77904" lon="3.81255">
        <ele>706</ele>
        <time>2016-09-29T10:35:49Z</time>
      </trkpt>
      <trkpt lat="43.77903" lon="3.81262">
        <ele>700</ele>
        <time>2016-09-29T10:40:49Z</time>
      </trkpt>
      <trkpt lat="43.77905" lon="3.81274">
        <ele>708</ele>
        <time>2016-09-29T10:42:20Z</time>
      </trkpt>
      <trkpt lat="43.77903" lon="3.81285">
        <ele>706</ele>
        <time>2016-09-29T10:43:43Z</time>
      </trkpt>
      <trkpt lat="43.77903" lon="3.81291">
        <ele>705</ele>
        <time>2016-09-29T10:43:49Z</time>
      </trkpt>
      <trkpt lat="43.77903" lon="3.81299">
        <ele>704</ele>
        <time>2016-09-29T10:44:08Z</time>
      </trkpt>
      <trkpt lat="43.77907" lon="3.81304">
        <ele>704</ele>
        <time>2016-09-29T10:44:23Z</time>
      </trkpt>
      <trkpt lat="43.7791" lon="3.81316">
        <ele>703</ele>
        <time>2016-09-29T10:44:45Z</time>
      </trkpt>
      <trkpt lat="43.77909" lon="3.81327">
        <ele>701</ele>
        <time>2016-09-29T10:45:06Z</time>
      </trkpt>
      <trkpt lat="43.7791" lon="3.81334">
        <ele>700</ele>
        <time>2016-09-29T10:45:20Z</time>
      </trkpt>
      <trkpt lat="43.77911" lon="3.8134">
        <ele>699</ele>
        <time>2016-09-29T10:45:28Z</time>
      </trkpt>
      <trkpt lat="43.77914" lon="3.81346">
        <ele>699</ele>
        <time>2016-09-29T10:45:40Z</time>
      </trkpt>
      <trkpt lat="43.77918" lon="3.81358">
        <ele>698</ele>
        <time>2016-09-29T10:46:04Z</time>
      </trkpt>
      <trkpt lat="43.77918" lon="3.81364">
        <ele>697</ele>
        <time>2016-09-29T10:46:12Z</time>
      </trkpt>
      <trkpt lat="43.77918" lon="3.8137">
        <ele>698</ele>
        <time>2016-09-29T10:46:25Z</time>
      </trkpt>
      <trkpt lat="43.77917" lon="3.81377">
        <ele>700</ele>
        <time>2016-09-29T10:46:40Z</time>
      </trkpt>
      <trkpt lat="43.77919" lon="3.81383">
        <ele>701</ele>
        <time>2016-09-29T10:46:48Z</time>
      </trkpt>
      <trkpt lat="43.77924" lon="3.81389">
        <ele>700</ele>
        <time>2016-09-29T10:47:01Z</time>
      </trkpt>
      <trkpt lat="43.77925" lon="3.81395">
        <ele>697</ele>
        <time>2016-09-29T10:47:10Z</time>
      </trkpt>
      <trkpt lat="43.77927" lon="3.81401">
        <ele>697</ele>
        <time>2016-09-29T10:47:22Z</time>
      </trkpt>
      <trkpt lat="43.77927" lon="3.81408">
        <ele>696</ele>
        <time>2016-09-29T10:47:29Z</time>
      </trkpt>
      <trkpt lat="43.77925" lon="3.81415">
        <ele>697</ele>
        <time>2016-09-29T10:47:39Z</time>
      </trkpt>
      <trkpt lat="43.77924" lon="3.81421">
        <ele>696</ele>
        <time>2016-09-29T10:47:46Z</time>
      </trkpt>
      <trkpt lat="43.7792" lon="3.81425">
        <ele>694</ele>
        <time>2016-09-29T10:48:01Z</time>
      </trkpt>
      <trkpt lat="43.77917" lon="3.81431">
        <ele>692</ele>
        <time>2016-09-29T10:48:11Z</time>
      </trkpt>
      <trkpt lat="43.77917" lon="3.81437">
        <ele>688</ele>
        <time>2016-09-29T10:48:22Z</time>
      </trkpt>
      <trkpt lat="43.77917" lon="3.8145">
        <ele>692</ele>
        <time>2016-09-29T10:48:35Z</time>
      </trkpt>
      <trkpt lat="43.77915" lon="3.8146">
        <ele>693</ele>
        <time>2016-09-29T10:49:08Z</time>
      </trkpt>
      <trkpt lat="43.77916" lon="3.81467">
        <ele>693</ele>
        <time>2016-09-29T10:49:16Z</time>
      </trkpt>
      <trkpt lat="43.77918" lon="3.81473">
        <ele>693</ele>
        <time>2016-09-29T10:49:24Z</time>
      </trkpt>
      <trkpt lat="43.77919" lon="3.81479">
        <ele>694</ele>
        <time>2016-09-29T10:49:30Z</time>
      </trkpt>
      <trkpt lat="43.77917" lon="3.8149">
        <ele>694</ele>
        <time>2016-09-29T10:50:24Z</time>
      </trkpt>
      <trkpt lat="43.77915" lon="3.81496">
        <ele>694</ele>
        <time>2016-09-29T10:50:35Z</time>
      </trkpt>
      <trkpt lat="43.77915" lon="3.81504">
        <ele>694</ele>
        <time>2016-09-29T10:50:42Z</time>
      </trkpt>
      <trkpt lat="43.77914" lon="3.81511">
        <ele>693</ele>
        <time>2016-09-29T10:50:49Z</time>
      </trkpt>
      <trkpt lat="43.77917" lon="3.81516">
        <ele>694</ele>
        <time>2016-09-29T10:50:57Z</time>
      </trkpt>
      <trkpt lat="43.77917" lon="3.81523">
        <ele>692</ele>
        <time>2016-09-29T10:51:04Z</time>
      </trkpt>
      <trkpt lat="43.77919" lon="3.81529">
        <ele>693</ele>
        <time>2016-09-29T10:51:11Z</time>
      </trkpt>
      <trkpt lat="43.77917" lon="3.8154">
        <ele>690</ele>
        <time>2016-09-29T10:52:01Z</time>
      </trkpt>
      <trkpt lat="43.77917" lon="3.81547">
        <ele>689</ele>
        <time>2016-09-29T10:52:13Z</time>
      </trkpt>
      <trkpt lat="43.77915" lon="3.81553">
        <ele>687</ele>
        <time>2016-09-29T10:52:26Z</time>
      </trkpt>
      <trkpt lat="43.77912" lon="3.81558">
        <ele>686</ele>
        <time>2016-09-29T10:52:34Z</time>
      </trkpt>
      <trkpt lat="43.77911" lon="3.81564">
        <ele>685</ele>
        <time>2016-09-29T10:52:41Z</time>
      </trkpt>
      <trkpt lat="43.77906" lon="3.81575">
        <ele>680</ele>
        <time>2016-09-29T10:53:19Z</time>
      </trkpt>
      <trkpt lat="43.77906" lon="3.81586">
        <ele>678</ele>
        <time>2016-09-29T10:54:14Z</time>
      </trkpt>
      <trkpt lat="43.77902" lon="3.81589">
        <ele>676</ele>
        <time>2016-09-29T10:54:28Z</time>
      </trkpt>
      <trkpt lat="43.77896" lon="3.81593">
        <ele>673</ele>
        <time>2016-09-29T10:55:13Z</time>
      </trkpt>
      <trkpt lat="43.77895" lon="3.81604">
        <ele>667</ele>
        <time>2016-09-29T10:56:12Z</time>
      </trkpt>
      <trkpt lat="43.77897" lon="3.8161">
        <ele>664</ele>
        <time>2016-09-29T10:56:26Z</time>
      </trkpt>
      <trkpt lat="43.77897" lon="3.81616">
        <ele>664</ele>
        <time>2016-09-29T10:56:45Z</time>
      </trkpt>
      <trkpt lat="43.77895" lon="3.81623">
        <ele>661</ele>
        <time>2016-09-29T10:57:13Z</time>
      </trkpt>
      <trkpt lat="43.77891" lon="3.81629">
        <ele>641</ele>
        <time>2016-09-29T10:58:41Z</time>
      </trkpt>
      <trkpt lat="43.77889" lon="3.81638">
        <ele>642</ele>
        <time>2016-09-29T10:59:28Z</time>
      </trkpt>
      <trkpt lat="43.77882" lon="3.81639">
        <ele>635</ele>
        <time>2016-09-29T11:01:04Z</time>
      </trkpt>
      <trkpt lat="43.7788" lon="3.81645">
        <ele>635</ele>
        <time>2016-09-29T11:01:23Z</time>
      </trkpt>
      <trkpt lat="43.7788" lon="3.81652">
        <ele>636</ele>
        <time>2016-09-29T11:01:32Z</time>
      </trkpt>
      <trkpt lat="43.77882" lon="3.81658">
        <ele>635</ele>
        <time>2016-09-29T11:01:43Z</time>
      </trkpt>
      <trkpt lat="43.77884" lon="3.81669">
        <ele>633</ele>
        <time>2016-09-29T11:02:01Z</time>
      </trkpt>
      <trkpt lat="43.77884" lon="3.81675">
        <ele>632</ele>
        <time>2016-09-29T11:02:10Z</time>
      </trkpt>
      <trkpt lat="43.77889" lon="3.81678">
        <ele>631</ele>
        <time>2016-09-29T11:02:18Z</time>
      </trkpt>
      <trkpt lat="43.77889" lon="3.81685">
        <ele>631</ele>
        <time>2016-09-29T11:02:29Z</time>
      </trkpt>
      <trkpt lat="43.77888" lon="3.81696">
        <ele>625</ele>
        <time>2016-09-29T11:02:49Z</time>
      </trkpt>
      <trkpt lat="43.7789" lon="3.81702">
        <ele>626</ele>
        <time>2016-09-29T11:03:13Z</time>
      </trkpt>
      <trkpt lat="43.77892" lon="3.81708">
        <ele>621</ele>
        <time>2016-09-29T11:03:31Z</time>
      </trkpt>
      <trkpt lat="43.77892" lon="3.81714">
        <ele>619</ele>
        <time>2016-09-29T11:03:41Z</time>
      </trkpt>
      <trkpt lat="43.77887" lon="3.81722">
        <ele>622</ele>
        <time>2016-09-29T11:03:57Z</time>
      </trkpt>
      <trkpt lat="43.77892" lon="3.81725">
        <ele>617</ele>
        <time>2016-09-29T11:04:26Z</time>
      </trkpt>
      <trkpt lat="43.77892" lon="3.81733">
        <ele>618</ele>
        <time>2016-09-29T11:05:23Z</time>
      </trkpt>
      <trkpt lat="43.77887" lon="3.81734">
        <ele>615</ele>
        <time>2016-09-29T11:05:29Z</time>
      </trkpt>
      <trkpt lat="43.77885" lon="3.8174">
        <ele>614</ele>
        <time>2016-09-29T11:05:38Z</time>
      </trkpt>
      <trkpt lat="43.77882" lon="3.81751">
        <ele>612</ele>
        <time>2016-09-29T11:05:57Z</time>
      </trkpt>
      <trkpt lat="43.77882" lon="3.81758">
        <ele>604</ele>
        <time>2016-09-29T11:06:21Z</time>
      </trkpt>
      <trkpt lat="43.77883" lon="3.81764">
        <ele>604</ele>
        <time>2016-09-29T11:06:27Z</time>
      </trkpt>
      <trkpt lat="43.77883" lon="3.81772">
        <ele>603</ele>
        <time>2016-09-29T11:06:37Z</time>
      </trkpt>
      <trkpt lat="43.77881" lon="3.8178">
        <ele>601</ele>
        <time>2016-09-29T11:06:58Z</time>
      </trkpt>
      <trkpt lat="43.7788" lon="3.81786">
        <ele>596</ele>
        <time>2016-09-29T11:07:28Z</time>
      </trkpt>
      <trkpt lat="43.77879" lon="3.81795">
        <ele>589</ele>
        <time>2016-09-29T11:07:57Z</time>
      </trkpt>
      <trkpt lat="43.77878" lon="3.81801">
        <ele>590</ele>
        <time>2016-09-29T11:08:08Z</time>
      </trkpt>
      <trkpt lat="43.77875" lon="3.81806">
        <ele>595</ele>
        <time>2016-09-29T11:08:35Z</time>
      </trkpt>
      <trkpt lat="43.77868" lon="3.81806">
        <ele>585</ele>
        <time>2016-09-29T11:09:49Z</time>
      </trkpt>
      <trkpt lat="43.77863" lon="3.81807">
        <ele>579</ele>
        <time>2016-09-29T11:10:38Z</time>
      </trkpt>
      <trkpt lat="43.77854" lon="3.81808">
        <ele>573</ele>
        <time>2016-09-29T11:11:58Z</time>
      </trkpt>
      <trkpt lat="43.77853" lon="3.81815">
        <ele>570</ele>
        <time>2016-09-29T11:12:12Z</time>
      </trkpt>
      <trkpt lat="43.77852" lon="3.81821">
        <ele>567</ele>
        <time>2016-09-29T11:12:22Z</time>
      </trkpt>
      <trkpt lat="43.77848" lon="3.81826">
        <ele>565</ele>
        <time>2016-09-29T11:12:35Z</time>
      </trkpt>
      <trkpt lat="43.77842" lon="3.81831">
        <ele>559</ele>
        <time>2016-09-29T11:13:08Z</time>
      </trkpt>
      <trkpt lat="43.77837" lon="3.81826">
        <ele>555</ele>
        <time>2016-09-29T11:13:23Z</time>
      </trkpt>
      <trkpt lat="43.77832" lon="3.81825">
        <ele>555</ele>
        <time>2016-09-29T11:13:39Z</time>
      </trkpt>
      <trkpt lat="43.77827" lon="3.8183">
        <ele>552</ele>
        <time>2016-09-29T11:14:01Z</time>
      </trkpt>
      <trkpt lat="43.77823" lon="3.81834">
        <ele>547</ele>
        <time>2016-09-29T11:14:25Z</time>
      </trkpt>
      <trkpt lat="43.77818" lon="3.81837">
        <ele>544</ele>
        <time>2016-09-29T11:15:33Z</time>
      </trkpt>
      <trkpt lat="43.7782" lon="3.81846">
        <ele>543</ele>
        <time>2016-09-29T11:17:40Z</time>
      </trkpt>
      <trkpt lat="43.77815" lon="3.81851">
        <ele>539</ele>
        <time>2016-09-29T11:17:58Z</time>
      </trkpt>
      <trkpt lat="43.77814" lon="3.81857">
        <ele>536</ele>
        <time>2016-09-29T11:18:09Z</time>
      </trkpt>
      <trkpt lat="43.77811" lon="3.81862">
        <ele>535</ele>
        <time>2016-09-29T11:18:36Z</time>
      </trkpt>
      <trkpt lat="43.77804" lon="3.81867">
        <ele>532</ele>
        <time>2016-09-29T11:19:03Z</time>
      </trkpt>
      <trkpt lat="43.778" lon="3.81871">
        <ele>530</ele>
        <time>2016-09-29T11:19:13Z</time>
      </trkpt>
      <trkpt lat="43.77796" lon="3.81873">
        <ele>527</ele>
        <time>2016-09-29T11:19:30Z</time>
      </trkpt>
      <trkpt lat="43.77791" lon="3.81872">
        <ele>524</ele>
        <time>2016-09-29T11:19:45Z</time>
      </trkpt>
      <trkpt lat="43.77784" lon="3.81872">
        <ele>517</ele>
        <time>2016-09-29T11:20:04Z</time>
      </trkpt>
      <trkpt lat="43.7778" lon="3.81876">
        <ele>515</ele>
        <time>2016-09-29T11:20:26Z</time>
      </trkpt>
      <trkpt lat="43.77777" lon="3.8188">
        <ele>511</ele>
        <time>2016-09-29T11:20:49Z</time>
      </trkpt>
      <trkpt lat="43.77773" lon="3.81885">
        <ele>509</ele>
        <time>2016-09-29T11:21:04Z</time>
      </trkpt>
      <trkpt lat="43.77768" lon="3.81887">
        <ele>507</ele>
        <time>2016-09-29T11:21:13Z</time>
      </trkpt>
      <trkpt lat="43.77765" lon="3.8189">
        <ele>501</ele>
        <time>2016-09-29T11:21:35Z</time>
      </trkpt>
      <trkpt lat="43.77763" lon="3.81897">
        <ele>498</ele>
        <time>2016-09-29T11:21:47Z</time>
      </trkpt>
      <trkpt lat="43.77758" lon="3.819">
        <ele>496</ele>
        <time>2016-09-29T11:21:58Z</time>
      </trkpt>
      <trkpt lat="43.77755" lon="3.81905">
        <ele>497</ele>
        <time>2016-09-29T11:22:24Z</time>
      </trkpt>
      <trkpt lat="43.77748" lon="3.81909">
        <ele>493</ele>
        <time>2016-09-29T11:23:06Z</time>
      </trkpt>
      <trkpt lat="43.77744" lon="3.81912">
        <ele>491</ele>
        <time>2016-09-29T11:23:31Z</time>
      </trkpt>
      <trkpt lat="43.7774" lon="3.81915">
        <ele>487</ele>
        <time>2016-09-29T11:24:06Z</time>
      </trkpt>
      <trkpt lat="43.77736" lon="3.8191">
        <ele>486</ele>
        <time>2016-09-29T11:24:16Z</time>
      </trkpt>
      <trkpt lat="43.77731" lon="3.81911">
        <ele>484</ele>
        <time>2016-09-29T11:24:27Z</time>
      </trkpt>
      <trkpt lat="43.77727" lon="3.81914">
        <ele>482</ele>
        <time>2016-09-29T11:24:48Z</time>
      </trkpt>
      <trkpt lat="43.77722" lon="3.81913">
        <ele>475</ele>
        <time>2016-09-29T11:24:56Z</time>
      </trkpt>
      <trkpt lat="43.77719" lon="3.81918">
        <ele>474</ele>
        <time>2016-09-29T11:25:15Z</time>
      </trkpt>
      <trkpt lat="43.77715" lon="3.8192">
        <ele>472</ele>
        <time>2016-09-29T11:25:26Z</time>
      </trkpt>
      <trkpt lat="43.77708" lon="3.81922">
        <ele>470</ele>
        <time>2016-09-29T11:26:24Z</time>
      </trkpt>
      <trkpt lat="43.77705" lon="3.81914">
        <ele>475</ele>
        <time>2016-09-29T11:28:33Z</time>
      </trkpt>
      <trkpt lat="43.77707" lon="3.81908">
        <ele>474</ele>
        <time>2016-09-29T11:28:42Z</time>
      </trkpt>
      <trkpt lat="43.77708" lon="3.81898">
        <ele>477</ele>
        <time>2016-09-29T11:28:57Z</time>
      </trkpt>
      <trkpt lat="43.77709" lon="3.81891">
        <ele>478</ele>
        <time>2016-09-29T11:29:08Z</time>
      </trkpt>
      <trkpt lat="43.77709" lon="3.81884">
        <ele>479</ele>
        <time>2016-09-29T11:29:21Z</time>
      </trkpt>
      <trkpt lat="43.77709" lon="3.81878">
        <ele>481</ele>
        <time>2016-09-29T11:29:29Z</time>
      </trkpt>
      <trkpt lat="43.7771" lon="3.81871">
        <ele>480</ele>
        <time>2016-09-29T11:29:36Z</time>
      </trkpt>
      <trkpt lat="43.7771" lon="3.81865">
        <ele>484</ele>
        <time>2016-09-29T11:29:43Z</time>
      </trkpt>
      <trkpt lat="43.77707" lon="3.81854">
        <ele>489</ele>
        <time>2016-09-29T11:29:58Z</time>
      </trkpt>
      <trkpt lat="43.77707" lon="3.81848">
        <ele>490</ele>
        <time>2016-09-29T11:30:07Z</time>
      </trkpt>
      <trkpt lat="43.77706" lon="3.81841">
        <ele>489</ele>
        <time>2016-09-29T11:30:17Z</time>
      </trkpt>
      <trkpt lat="43.77707" lon="3.81833">
        <ele>491</ele>
        <time>2016-09-29T11:30:29Z</time>
      </trkpt>
      <trkpt lat="43.77703" lon="3.81821">
        <ele>492</ele>
        <time>2016-09-29T11:30:40Z</time>
      </trkpt>
      <trkpt lat="43.77704" lon="3.81811">
        <ele>495</ele>
        <time>2016-09-29T11:30:49Z</time>
      </trkpt>
      <trkpt lat="43.77708" lon="3.81807">
        <ele>496</ele>
        <time>2016-09-29T11:30:56Z</time>
      </trkpt>
      <trkpt lat="43.77712" lon="3.81802">
        <ele>496</ele>
        <time>2016-09-29T11:31:02Z</time>
      </trkpt>
      <trkpt lat="43.77711" lon="3.81795">
        <ele>497</ele>
        <time>2016-09-29T11:31:12Z</time>
      </trkpt>
      <trkpt lat="43.77711" lon="3.81781">
        <ele>498</ele>
        <time>2016-09-29T11:31:24Z</time>
      </trkpt>
      <trkpt lat="43.77713" lon="3.81775">
        <ele>499</ele>
        <time>2016-09-29T11:31:32Z</time>
      </trkpt>
      <trkpt lat="43.77714" lon="3.81768">
        <ele>497</ele>
        <time>2016-09-29T11:31:39Z</time>
      </trkpt>
      <trkpt lat="43.77716" lon="3.81763">
        <ele>503</ele>
        <time>2016-09-29T11:31:47Z</time>
      </trkpt>
      <trkpt lat="43.77716" lon="3.81755">
        <ele>506</ele>
        <time>2016-09-29T11:31:56Z</time>
      </trkpt>
      <trkpt lat="43.7772" lon="3.81744">
        <ele>506</ele>
        <time>2016-09-29T11:32:09Z</time>
      </trkpt>
      <trkpt lat="43.77718" lon="3.81738">
        <ele>510</ele>
        <time>2016-09-29T11:32:23Z</time>
      </trkpt>
      <trkpt lat="43.77719" lon="3.81733">
        <ele>508</ele>
        <time>2016-09-29T11:32:32Z</time>
      </trkpt>
      <trkpt lat="43.77716" lon="3.81717">
        <ele>510</ele>
        <time>2016-09-29T11:32:43Z</time>
      </trkpt>
      <trkpt lat="43.77715" lon="3.81708">
        <ele>555</ele>
        <time>2016-09-29T11:33:00Z</time>
      </trkpt>
      <trkpt lat="43.77718" lon="3.81701">
        <ele>529</ele>
        <time>2016-09-29T11:33:09Z</time>
      </trkpt>
      <trkpt lat="43.77724" lon="3.81688">
        <ele>521</ele>
        <time>2016-09-29T11:33:15Z</time>
      </trkpt>
      <trkpt lat="43.77726" lon="3.8168">
        <ele>519</ele>
        <time>2016-09-29T11:33:55Z</time>
      </trkpt>
      <trkpt lat="43.77724" lon="3.81673">
        <ele>523</ele>
        <time>2016-09-29T11:34:10Z</time>
      </trkpt>
      <trkpt lat="43.77725" lon="3.81662">
        <ele>525</ele>
        <time>2016-09-29T11:34:25Z</time>
      </trkpt>
      <trkpt lat="43.77724" lon="3.81654">
        <ele>528</ele>
        <time>2016-09-29T11:34:34Z</time>
      </trkpt>
      <trkpt lat="43.77726" lon="3.81641">
        <ele>532</ele>
        <time>2016-09-29T11:34:46Z</time>
      </trkpt>
      <trkpt lat="43.77726" lon="3.81632">
        <ele>531</ele>
        <time>2016-09-29T11:36:06Z</time>
      </trkpt>
      <trkpt lat="43.77724" lon="3.81616">
        <ele>529</ele>
        <time>2016-09-29T11:36:16Z</time>
      </trkpt>
      <trkpt lat="43.77724" lon="3.8161">
        <ele>528</ele>
        <time>2016-09-29T11:36:28Z</time>
      </trkpt>
      <trkpt lat="43.77723" lon="3.81603">
        <ele>530</ele>
        <time>2016-09-29T11:36:42Z</time>
      </trkpt>
      <trkpt lat="43.77724" lon="3.81597">
        <ele>532</ele>
        <time>2016-09-29T11:36:49Z</time>
      </trkpt>
      <trkpt lat="43.77722" lon="3.8159">
        <ele>531</ele>
        <time>2016-09-29T11:36:57Z</time>
      </trkpt>
      <trkpt lat="43.77718" lon="3.81587">
        <ele>537</ele>
        <time>2016-09-29T11:37:04Z</time>
      </trkpt>
      <trkpt lat="43.77714" lon="3.81584">
        <ele>542</ele>
        <time>2016-09-29T11:37:13Z</time>
      </trkpt>
      <trkpt lat="43.7771" lon="3.81579">
        <ele>546</ele>
        <time>2016-09-29T11:37:23Z</time>
      </trkpt>
      <trkpt lat="43.77707" lon="3.81573">
        <ele>546</ele>
        <time>2016-09-29T11:37:38Z</time>
      </trkpt>
      <trkpt lat="43.77705" lon="3.81564">
        <ele>547</ele>
        <time>2016-09-29T11:37:49Z</time>
      </trkpt>
      <trkpt lat="43.77705" lon="3.81557">
        <ele>549</ele>
        <time>2016-09-29T11:37:58Z</time>
      </trkpt>
      <trkpt lat="43.77703" lon="3.81551">
        <ele>550</ele>
        <time>2016-09-29T11:38:09Z</time>
      </trkpt>
      <trkpt lat="43.77703" lon="3.81544">
        <ele>550</ele>
        <time>2016-09-29T11:38:17Z</time>
      </trkpt>
      <trkpt lat="43.77707" lon="3.8153">
        <ele>551</ele>
        <time>2016-09-29T11:38:26Z</time>
      </trkpt>
      <trkpt lat="43.77702" lon="3.81526">
        <ele>555</ele>
        <time>2016-09-29T11:38:49Z</time>
      </trkpt>
      <trkpt lat="43.77706" lon="3.81521">
        <ele>557</ele>
        <time>2016-09-29T11:39:26Z</time>
      </trkpt>
      <trkpt lat="43.77703" lon="3.81512">
        <ele>559</ele>
        <time>2016-09-29T11:39:42Z</time>
      </trkpt>
      <trkpt lat="43.77697" lon="3.81511">
        <ele>563</ele>
        <time>2016-09-29T11:39:49Z</time>
      </trkpt>
      <trkpt lat="43.77694" lon="3.81505">
        <ele>563</ele>
        <time>2016-09-29T11:39:57Z</time>
      </trkpt>
      <trkpt lat="43.77695" lon="3.81499">
        <ele>567</ele>
        <time>2016-09-29T11:40:06Z</time>
      </trkpt>
      <trkpt lat="43.777" lon="3.81494">
        <ele>568</ele>
        <time>2016-09-29T11:40:16Z</time>
      </trkpt>
      <trkpt lat="43.77707" lon="3.81493">
        <ele>572</ele>
        <time>2016-09-29T11:40:58Z</time>
      </trkpt>
      <trkpt lat="43.77708" lon="3.81482">
        <ele>570</ele>
        <time>2016-09-29T11:41:13Z</time>
      </trkpt>
      <trkpt lat="43.77708" lon="3.81476">
        <ele>577</ele>
        <time>2016-09-29T11:41:24Z</time>
      </trkpt>
      <trkpt lat="43.77707" lon="3.8147">
        <ele>578</ele>
        <time>2016-09-29T11:41:33Z</time>
      </trkpt>
      <trkpt lat="43.77705" lon="3.81464">
        <ele>580</ele>
        <time>2016-09-29T11:41:46Z</time>
      </trkpt>
      <trkpt lat="43.77702" lon="3.81455">
        <ele>576</ele>
        <time>2016-09-29T11:41:53Z</time>
      </trkpt>
      <trkpt lat="43.777" lon="3.81441">
        <ele>577</ele>
        <time>2016-09-29T11:42:04Z</time>
      </trkpt>
      <trkpt lat="43.77696" lon="3.81435">
        <ele>577</ele>
        <time>2016-09-29T11:42:11Z</time>
      </trkpt>
      <trkpt lat="43.77696" lon="3.81427">
        <ele>579</ele>
        <time>2016-09-29T11:42:19Z</time>
      </trkpt>
      <trkpt lat="43.77689" lon="3.81419">
        <ele>586</ele>
        <time>2016-09-29T11:42:26Z</time>
      </trkpt>
      <trkpt lat="43.77692" lon="3.81414">
        <ele>585</ele>
        <time>2016-09-29T11:42:38Z</time>
      </trkpt>
      <trkpt lat="43.77694" lon="3.81407">
        <ele>584</ele>
        <time>2016-09-29T11:42:44Z</time>
      </trkpt>
      <trkpt lat="43.77702" lon="3.81399">
        <ele>577</ele>
        <time>2016-09-29T11:42:54Z</time>
      </trkpt>
      <trkpt lat="43.77702" lon="3.81392">
        <ele>574</ele>
        <time>2016-09-29T11:43:08Z</time>
      </trkpt>
      <trkpt lat="43.77698" lon="3.8139">
        <ele>576</ele>
        <time>2016-09-29T11:43:37Z</time>
      </trkpt>
      <trkpt lat="43.77693" lon="3.8138">
        <ele>578</ele>
        <time>2016-09-29T11:43:49Z</time>
      </trkpt>
      <trkpt lat="43.77688" lon="3.81382">
        <ele>573</ele>
        <time>2016-09-29T11:43:58Z</time>
      </trkpt>
      <trkpt lat="43.77679" lon="3.8138">
        <ele>576</ele>
        <time>2016-09-29T11:44:06Z</time>
      </trkpt>
      <trkpt lat="43.7767" lon="3.81371">
        <ele>579</ele>
        <time>2016-09-29T11:44:14Z</time>
      </trkpt>
      <trkpt lat="43.77663" lon="3.8136">
        <ele>580</ele>
        <time>2016-09-29T11:44:22Z</time>
      </trkpt>
      <trkpt lat="43.77667" lon="3.81355">
        <ele>574</ele>
        <time>2016-09-29T11:44:28Z</time>
      </trkpt>
      <trkpt lat="43.77666" lon="3.81348">
        <ele>574</ele>
        <time>2016-09-29T11:44:34Z</time>
      </trkpt>
      <trkpt lat="43.77667" lon="3.81342">
        <ele>573</ele>
        <time>2016-09-29T11:44:41Z</time>
      </trkpt>
      <trkpt lat="43.7767" lon="3.81335">
        <ele>568</ele>
        <time>2016-09-29T11:44:47Z</time>
      </trkpt>
      <trkpt lat="43.7767" lon="3.81321">
        <ele>564</ele>
        <time>2016-09-29T11:44:59Z</time>
      </trkpt>
      <trkpt lat="43.77672" lon="3.81314">
        <ele>562</ele>
        <time>2016-09-29T11:45:06Z</time>
      </trkpt>
      <trkpt lat="43.77669" lon="3.813">
        <ele>568</ele>
        <time>2016-09-29T11:45:13Z</time>
      </trkpt>
      <trkpt lat="43.77671" lon="3.81286">
        <ele>569</ele>
        <time>2016-09-29T11:45:20Z</time>
      </trkpt>
      <trkpt lat="43.77676" lon="3.81274">
        <ele>568</ele>
        <time>2016-09-29T11:45:30Z</time>
      </trkpt>
      <trkpt lat="43.77674" lon="3.81268">
        <ele>567</ele>
        <time>2016-09-29T11:45:36Z</time>
      </trkpt>
      <trkpt lat="43.77679" lon="3.81256">
        <ele>565</ele>
        <time>2016-09-29T11:45:45Z</time>
      </trkpt>
      <trkpt lat="43.77681" lon="3.81246">
        <ele>562</ele>
        <time>2016-09-29T11:45:53Z</time>
      </trkpt>
      <trkpt lat="43.77681" lon="3.81239">
        <ele>559</ele>
        <time>2016-09-29T11:46:03Z</time>
      </trkpt>
      <trkpt lat="43.77679" lon="3.81234">
        <ele>561</ele>
        <time>2016-09-29T11:46:22Z</time>
      </trkpt>
      <trkpt lat="43.77678" lon="3.81227">
        <ele>560</ele>
        <time>2016-09-29T11:46:28Z</time>
      </trkpt>
      <trkpt lat="43.77674" lon="3.81213">
        <ele>559</ele>
        <time>2016-09-29T11:46:35Z</time>
      </trkpt>
      <trkpt lat="43.77673" lon="3.81206">
        <ele>560</ele>
        <time>2016-09-29T11:46:43Z</time>
      </trkpt>
      <trkpt lat="43.77671" lon="3.81198">
        <ele>560</ele>
        <time>2016-09-29T11:46:49Z</time>
      </trkpt>
      <trkpt lat="43.77671" lon="3.81189">
        <ele>555</ele>
        <time>2016-09-29T11:46:56Z</time>
      </trkpt>
      <trkpt lat="43.77671" lon="3.81183">
        <ele>554</ele>
        <time>2016-09-29T11:47:19Z</time>
      </trkpt>
      <trkpt lat="43.77669" lon="3.81168">
        <ele>555</ele>
        <time>2016-09-29T11:47:32Z</time>
      </trkpt>
      <trkpt lat="43.77668" lon="3.81155">
        <ele>552</ele>
        <time>2016-09-29T11:47:41Z</time>
      </trkpt>
      <trkpt lat="43.77665" lon="3.81147">
        <ele>553</ele>
        <time>2016-09-29T11:47:49Z</time>
      </trkpt>
      <trkpt lat="43.77665" lon="3.8114">
        <ele>547</ele>
        <time>2016-09-29T11:47:56Z</time>
      </trkpt>
      <trkpt lat="43.77667" lon="3.81126">
        <ele>543</ele>
        <time>2016-09-29T11:48:02Z</time>
      </trkpt>
      <trkpt lat="43.77666" lon="3.81119">
        <ele>542</ele>
        <time>2016-09-29T11:48:11Z</time>
      </trkpt>
      <trkpt lat="43.77666" lon="3.81106">
        <ele>540</ele>
        <time>2016-09-29T11:48:20Z</time>
      </trkpt>
      <trkpt lat="43.77673" lon="3.81093">
        <ele>538</ele>
        <time>2016-09-29T11:48:30Z</time>
      </trkpt>
      <trkpt lat="43.77673" lon="3.8108">
        <ele>538</ele>
        <time>2016-09-29T11:48:39Z</time>
      </trkpt>
      <trkpt lat="43.77674" lon="3.81074">
        <ele>535</ele>
        <time>2016-09-29T11:48:45Z</time>
      </trkpt>
      <trkpt lat="43.77676" lon="3.81058">
        <ele>535</ele>
        <time>2016-09-29T11:48:55Z</time>
      </trkpt>
      <trkpt lat="43.7768" lon="3.81054">
        <ele>534</ele>
        <time>2016-09-29T11:49:02Z</time>
      </trkpt>
      <trkpt lat="43.77683" lon="3.81047">
        <ele>534</ele>
        <time>2016-09-29T11:49:08Z</time>
      </trkpt>
      <trkpt lat="43.77687" lon="3.81035">
        <ele>533</ele>
        <time>2016-09-29T11:49:17Z</time>
      </trkpt>
      <trkpt lat="43.77685" lon="3.81022">
        <ele>538</ele>
        <time>2016-09-29T11:49:28Z</time>
      </trkpt>
      <trkpt lat="43.77684" lon="3.81008">
        <ele>535</ele>
        <time>2016-09-29T11:49:39Z</time>
      </trkpt>
      <trkpt lat="43.77683" lon="3.80998">
        <ele>531</ele>
        <time>2016-09-29T11:49:49Z</time>
      </trkpt>
      <trkpt lat="43.77681" lon="3.80986">
        <ele>531</ele>
        <time>2016-09-29T11:50:00Z</time>
      </trkpt>
      <trkpt lat="43.77681" lon="3.80972">
        <ele>530</ele>
        <time>2016-09-29T11:50:11Z</time>
      </trkpt>
      <trkpt lat="43.7768" lon="3.80959">
        <ele>522</ele>
        <time>2016-09-29T11:50:23Z</time>
      </trkpt>
      <trkpt lat="43.77677" lon="3.80951">
        <ele>521</ele>
        <time>2016-09-29T11:50:29Z</time>
      </trkpt>
      <trkpt lat="43.77678" lon="3.80944">
        <ele>519</ele>
        <time>2016-09-29T11:50:36Z</time>
      </trkpt>
      <trkpt lat="43.77677" lon="3.80937">
        <ele>516</ele>
        <time>2016-09-29T11:50:49Z</time>
      </trkpt>
      <trkpt lat="43.77674" lon="3.80922">
        <ele>521</ele>
        <time>2016-09-29T11:51:00Z</time>
      </trkpt>
      <trkpt lat="43.77666" lon="3.80914">
        <ele>521</ele>
        <time>2016-09-29T11:51:09Z</time>
      </trkpt>
      <trkpt lat="43.77662" lon="3.80903">
        <ele>523</ele>
        <time>2016-09-29T11:51:19Z</time>
      </trkpt>
      <trkpt lat="43.77661" lon="3.8089">
        <ele>522</ele>
        <time>2016-09-29T11:51:35Z</time>
      </trkpt>
      <trkpt lat="43.7766" lon="3.80883">
        <ele>519</ele>
        <time>2016-09-29T11:51:45Z</time>
      </trkpt>
      <trkpt lat="43.77661" lon="3.80876">
        <ele>513</ele>
        <time>2016-09-29T11:52:01Z</time>
      </trkpt>
      <trkpt lat="43.77658" lon="3.80863">
        <ele>510</ele>
        <time>2016-09-29T11:52:09Z</time>
      </trkpt>
      <trkpt lat="43.77657" lon="3.80856">
        <ele>510</ele>
        <time>2016-09-29T11:52:15Z</time>
      </trkpt>
      <trkpt lat="43.77655" lon="3.80842">
        <ele>507</ele>
        <time>2016-09-29T11:52:23Z</time>
      </trkpt>
      <trkpt lat="43.77652" lon="3.80828">
        <ele>507</ele>
        <time>2016-09-29T11:52:34Z</time>
      </trkpt>
      <trkpt lat="43.77649" lon="3.80815">
        <ele>504</ele>
        <time>2016-09-29T11:52:44Z</time>
      </trkpt>
      <trkpt lat="43.77643" lon="3.80801">
        <ele>509</ele>
        <time>2016-09-29T11:52:54Z</time>
      </trkpt>
      <trkpt lat="43.77642" lon="3.80794">
        <ele>508</ele>
        <time>2016-09-29T11:53:00Z</time>
      </trkpt>
      <trkpt lat="43.77639" lon="3.8078">
        <ele>509</ele>
        <time>2016-09-29T11:53:08Z</time>
      </trkpt>
      <trkpt lat="43.77634" lon="3.80776">
        <ele>510</ele>
        <time>2016-09-29T11:53:14Z</time>
      </trkpt>
      <trkpt lat="43.77627" lon="3.80766">
        <ele>508</ele>
        <time>2016-09-29T11:53:23Z</time>
      </trkpt>
      <trkpt lat="43.77622" lon="3.80754">
        <ele>509</ele>
        <time>2016-09-29T11:53:30Z</time>
      </trkpt>
      <trkpt lat="43.7762" lon="3.80747">
        <ele>508</ele>
        <time>2016-09-29T11:53:37Z</time>
      </trkpt>
      <trkpt lat="43.77615" lon="3.80736">
        <ele>511</ele>
        <time>2016-09-29T11:53:46Z</time>
      </trkpt>
      <trkpt lat="43.77613" lon="3.80725">
        <ele>505</ele>
        <time>2016-09-29T11:53:56Z</time>
      </trkpt>
      <trkpt lat="43.77607" lon="3.80714">
        <ele>506</ele>
        <time>2016-09-29T11:54:04Z</time>
      </trkpt>
      <trkpt lat="43.77601" lon="3.80704">
        <ele>507</ele>
        <time>2016-09-29T11:54:10Z</time>
      </trkpt>
      <trkpt lat="43.77594" lon="3.80696">
        <ele>506</ele>
        <time>2016-09-29T11:54:18Z</time>
      </trkpt>
      <trkpt lat="43.7759" lon="3.80684">
        <ele>507</ele>
        <time>2016-09-29T11:54:25Z</time>
      </trkpt>
      <trkpt lat="43.77592" lon="3.80676">
        <ele>505</ele>
        <time>2016-09-29T11:54:31Z</time>
      </trkpt>
      <trkpt lat="43.77593" lon="3.80667">
        <ele>503</ele>
        <time>2016-09-29T11:54:37Z</time>
      </trkpt>
      <trkpt lat="43.77592" lon="3.8066">
        <ele>500</ele>
        <time>2016-09-29T11:54:43Z</time>
      </trkpt>
      <trkpt lat="43.77592" lon="3.80648">
        <ele>502</ele>
        <time>2016-09-29T11:54:49Z</time>
      </trkpt>
      <trkpt lat="43.7759" lon="3.80634">
        <ele>504</ele>
        <time>2016-09-29T11:54:57Z</time>
      </trkpt>
      <trkpt lat="43.77589" lon="3.80627">
        <ele>505</ele>
        <time>2016-09-29T11:55:04Z</time>
      </trkpt>
      <trkpt lat="43.77587" lon="3.8061">
        <ele>504</ele>
        <time>2016-09-29T11:55:11Z</time>
      </trkpt>
      <trkpt lat="43.77587" lon="3.80597">
        <ele>503</ele>
        <time>2016-09-29T11:55:22Z</time>
      </trkpt>
      <trkpt lat="43.77589" lon="3.80583">
        <ele>501</ele>
        <time>2016-09-29T11:55:28Z</time>
      </trkpt>
      <trkpt lat="43.77588" lon="3.80576">
        <ele>504</ele>
        <time>2016-09-29T11:55:45Z</time>
      </trkpt>
      <trkpt lat="43.77589" lon="3.8056">
        <ele>498</ele>
        <time>2016-09-29T11:55:56Z</time>
      </trkpt>
      <trkpt lat="43.77586" lon="3.80556">
        <ele>498</ele>
        <time>2016-09-29T11:56:02Z</time>
      </trkpt>
      <trkpt lat="43.77582" lon="3.80551">
        <ele>500</ele>
        <time>2016-09-29T11:56:10Z</time>
      </trkpt>
      <trkpt lat="43.77583" lon="3.80537">
        <ele>494</ele>
        <time>2016-09-29T11:56:22Z</time>
      </trkpt>
      <trkpt lat="43.77583" lon="3.80524">
        <ele>497</ele>
        <time>2016-09-29T11:56:31Z</time>
      </trkpt>
      <trkpt lat="43.77579" lon="3.8051">
        <ele>503</ele>
        <time>2016-09-29T11:56:38Z</time>
      </trkpt>
      <trkpt lat="43.77578" lon="3.80498">
        <ele>495</ele>
        <time>2016-09-29T11:56:47Z</time>
      </trkpt>
      <trkpt lat="43.77577" lon="3.80489">
        <ele>491</ele>
        <time>2016-09-29T11:56:55Z</time>
      </trkpt>
      <trkpt lat="43.77576" lon="3.80482">
        <ele>489</ele>
        <time>2016-09-29T11:57:01Z</time>
      </trkpt>
      <trkpt lat="43.77578" lon="3.80469">
        <ele>490</ele>
        <time>2016-09-29T11:57:10Z</time>
      </trkpt>
      <trkpt lat="43.77574" lon="3.80457">
        <ele>490</ele>
        <time>2016-09-29T11:57:21Z</time>
      </trkpt>
      <trkpt lat="43.77575" lon="3.8045">
        <ele>490</ele>
        <time>2016-09-29T11:57:27Z</time>
      </trkpt>
      <trkpt lat="43.77576" lon="3.80443">
        <ele>491</ele>
        <time>2016-09-29T11:57:34Z</time>
      </trkpt>
      <trkpt lat="43.77578" lon="3.80429">
        <ele>489</ele>
        <time>2016-09-29T11:57:41Z</time>
      </trkpt>
      <trkpt lat="43.77576" lon="3.80423">
        <ele>490</ele>
        <time>2016-09-29T11:57:48Z</time>
      </trkpt>
      <trkpt lat="43.77576" lon="3.80413">
        <ele>489</ele>
        <time>2016-09-29T11:57:55Z</time>
      </trkpt>
      <trkpt lat="43.77574" lon="3.804">
        <ele>490</ele>
        <time>2016-09-29T11:58:04Z</time>
      </trkpt>
      <trkpt lat="43.77574" lon="3.80394">
        <ele>486</ele>
        <time>2016-09-29T11:58:10Z</time>
      </trkpt>
      <trkpt lat="43.77574" lon="3.8038">
        <ele>479</ele>
        <time>2016-09-29T11:58:20Z</time>
      </trkpt>
      <trkpt lat="43.77574" lon="3.80372">
        <ele>474</ele>
        <time>2016-09-29T11:58:28Z</time>
      </trkpt>
      <trkpt lat="43.77574" lon="3.80366">
        <ele>476</ele>
        <time>2016-09-29T11:58:34Z</time>
      </trkpt>
      <trkpt lat="43.77573" lon="3.80352">
        <ele>476</ele>
        <time>2016-09-29T11:58:43Z</time>
      </trkpt>
      <trkpt lat="43.77573" lon="3.80338">
        <ele>473</ele>
        <time>2016-09-29T11:58:55Z</time>
      </trkpt>
      <trkpt lat="43.77571" lon="3.80331">
        <ele>473</ele>
        <time>2016-09-29T11:59:03Z</time>
      </trkpt>
      <trkpt lat="43.77571" lon="3.80324">
        <ele>472</ele>
        <time>2016-09-29T11:59:10Z</time>
      </trkpt>
      <trkpt lat="43.77565" lon="3.8031">
        <ele>482</ele>
        <time>2016-09-29T11:59:21Z</time>
      </trkpt>
      <trkpt lat="43.77567" lon="3.80304">
        <ele>483</ele>
        <time>2016-09-29T11:59:27Z</time>
      </trkpt>
      <trkpt lat="43.77565" lon="3.80289">
        <ele>478</ele>
        <time>2016-09-29T11:59:37Z</time>
      </trkpt>
      <trkpt lat="43.77563" lon="3.80277">
        <ele>479</ele>
        <time>2016-09-29T11:59:48Z</time>
      </trkpt>
      <trkpt lat="43.77563" lon="3.80267">
        <ele>481</ele>
        <time>2016-09-29T11:59:55Z</time>
      </trkpt>
      <trkpt lat="43.77563" lon="3.80255">
        <ele>484</ele>
        <time>2016-09-29T12:00:05Z</time>
      </trkpt>
      <trkpt lat="43.77564" lon="3.80248">
        <ele>484</ele>
        <time>2016-09-29T12:00:14Z</time>
      </trkpt>
      <trkpt lat="43.77563" lon="3.80236">
        <ele>487</ele>
        <time>2016-09-29T12:00:26Z</time>
      </trkpt>
      <trkpt lat="43.7756" lon="3.8022">
        <ele>490</ele>
        <time>2016-09-29T12:00:38Z</time>
      </trkpt>
      <trkpt lat="43.77556" lon="3.8021">
        <ele>487</ele>
        <time>2016-09-29T12:00:47Z</time>
      </trkpt>
      <trkpt lat="43.77556" lon="3.802">
        <ele>487</ele>
        <time>2016-09-29T12:00:56Z</time>
      </trkpt>
      <trkpt lat="43.77557" lon="3.80186">
        <ele>484</ele>
        <time>2016-09-29T12:01:04Z</time>
      </trkpt>
      <trkpt lat="43.77556" lon="3.8018">
        <ele>482</ele>
        <time>2016-09-29T12:01:11Z</time>
      </trkpt>
      <trkpt lat="43.77555" lon="3.80172">
        <ele>481</ele>
        <time>2016-09-29T12:01:17Z</time>
      </trkpt>
      <trkpt lat="43.77554" lon="3.80165">
        <ele>479</ele>
        <time>2016-09-29T12:01:24Z</time>
      </trkpt>
      <trkpt lat="43.77552" lon="3.80153">
        <ele>475</ele>
        <time>2016-09-29T12:01:33Z</time>
      </trkpt>
      <trkpt lat="43.7755" lon="3.80147">
        <ele>478</ele>
        <time>2016-09-29T12:01:39Z</time>
      </trkpt>
      <trkpt lat="43.77547" lon="3.8014">
        <ele>474</ele>
        <time>2016-09-29T12:01:45Z</time>
      </trkpt>
      <trkpt lat="43.77546" lon="3.80129">
        <ele>477</ele>
        <time>2016-09-29T12:01:54Z</time>
      </trkpt>
      <trkpt lat="43.77543" lon="3.80124">
        <ele>478</ele>
        <time>2016-09-29T12:02:01Z</time>
      </trkpt>
      <trkpt lat="43.77543" lon="3.80118">
        <ele>478</ele>
        <time>2016-09-29T12:02:10Z</time>
      </trkpt>
      <trkpt lat="43.7754" lon="3.80105">
        <ele>477</ele>
        <time>2016-09-29T12:02:23Z</time>
      </trkpt>
      <trkpt lat="43.77538" lon="3.80091">
        <ele>477</ele>
        <time>2016-09-29T12:02:29Z</time>
      </trkpt>
      <trkpt lat="43.77536" lon="3.80078">
        <ele>474</ele>
        <time>2016-09-29T12:02:39Z</time>
      </trkpt>
      <trkpt lat="43.77533" lon="3.80066">
        <ele>474</ele>
        <time>2016-09-29T12:02:49Z</time>
      </trkpt>
      <trkpt lat="43.7753" lon="3.80054">
        <ele>473</ele>
        <time>2016-09-29T12:02:56Z</time>
      </trkpt>
      <trkpt lat="43.77527" lon="3.80042">
        <ele>471</ele>
        <time>2016-09-29T12:03:04Z</time>
      </trkpt>
      <trkpt lat="43.7752" lon="3.8003">
        <ele>477</ele>
        <time>2016-09-29T12:03:16Z</time>
      </trkpt>
      <trkpt lat="43.77519" lon="3.80023">
        <ele>472</ele>
        <time>2016-09-29T12:03:22Z</time>
      </trkpt>
      <trkpt lat="43.77519" lon="3.80009">
        <ele>471</ele>
        <time>2016-09-29T12:03:31Z</time>
      </trkpt>
      <trkpt lat="43.77517" lon="3.79995">
        <ele>465</ele>
        <time>2016-09-29T12:03:41Z</time>
      </trkpt>
      <trkpt lat="43.77515" lon="3.79989">
        <ele>467</ele>
        <time>2016-09-29T12:03:47Z</time>
      </trkpt>
      <trkpt lat="43.7751" lon="3.7997">
        <ele>464</ele>
        <time>2016-09-29T12:03:58Z</time>
      </trkpt>
      <trkpt lat="43.77507" lon="3.79955">
        <ele>462</ele>
        <time>2016-09-29T12:04:06Z</time>
      </trkpt>
      <trkpt lat="43.77507" lon="3.79948">
        <ele>460</ele>
        <time>2016-09-29T12:04:12Z</time>
      </trkpt>
      <trkpt lat="43.7751" lon="3.79932">
        <ele>460</ele>
        <time>2016-09-29T12:04:23Z</time>
      </trkpt>
      <trkpt lat="43.77514" lon="3.79923">
        <ele>459</ele>
        <time>2016-09-29T12:04:32Z</time>
      </trkpt>
      <trkpt lat="43.77509" lon="3.79909">
        <ele>461</ele>
        <time>2016-09-29T12:04:45Z</time>
      </trkpt>
      <trkpt lat="43.77505" lon="3.79897">
        <ele>466</ele>
        <time>2016-09-29T12:04:54Z</time>
      </trkpt>
      <trkpt lat="43.77499" lon="3.79883">
        <ele>467</ele>
        <time>2016-09-29T12:05:02Z</time>
      </trkpt>
      <trkpt lat="43.77496" lon="3.79869">
        <ele>463</ele>
        <time>2016-09-29T12:05:11Z</time>
      </trkpt>
      <trkpt lat="43.77488" lon="3.79858">
        <ele>466</ele>
        <time>2016-09-29T12:05:17Z</time>
      </trkpt>
      <trkpt lat="43.77481" lon="3.79846">
        <ele>464</ele>
        <time>2016-09-29T12:05:25Z</time>
      </trkpt>
      <trkpt lat="43.77479" lon="3.79839">
        <ele>465</ele>
        <time>2016-09-29T12:05:36Z</time>
      </trkpt>
      <trkpt lat="43.77477" lon="3.79834">
        <ele>463</ele>
        <time>2016-09-29T12:05:43Z</time>
      </trkpt>
      <trkpt lat="43.77474" lon="3.79826">
        <ele>463</ele>
        <time>2016-09-29T12:05:49Z</time>
      </trkpt>
      <trkpt lat="43.7747" lon="3.79813">
        <ele>464</ele>
        <time>2016-09-29T12:06:11Z</time>
      </trkpt>
      <trkpt lat="43.77465" lon="3.79801">
        <ele>467</ele>
        <time>2016-09-29T12:06:23Z</time>
      </trkpt>
      <trkpt lat="43.77462" lon="3.79787">
        <ele>465</ele>
        <time>2016-09-29T12:06:33Z</time>
      </trkpt>
      <trkpt lat="43.7746" lon="3.7978">
        <ele>462</ele>
        <time>2016-09-29T12:06:40Z</time>
      </trkpt>
      <trkpt lat="43.77457" lon="3.79769">
        <ele>463</ele>
        <time>2016-09-29T12:06:48Z</time>
      </trkpt>
      <trkpt lat="43.77454" lon="3.79761">
        <ele>463</ele>
        <time>2016-09-29T12:06:54Z</time>
      </trkpt>
      <trkpt lat="43.77454" lon="3.79748">
        <ele>462</ele>
        <time>2016-09-29T12:07:02Z</time>
      </trkpt>
      <trkpt lat="43.77454" lon="3.79734">
        <ele>464</ele>
        <time>2016-09-29T12:07:12Z</time>
      </trkpt>
      <trkpt lat="43.77451" lon="3.79722">
        <ele>464</ele>
        <time>2016-09-29T12:07:22Z</time>
      </trkpt>
      <trkpt lat="43.77449" lon="3.79709">
        <ele>466</ele>
        <time>2016-09-29T12:07:31Z</time>
      </trkpt>
      <trkpt lat="43.77447" lon="3.79695">
        <ele>463</ele>
        <time>2016-09-29T12:07:40Z</time>
      </trkpt>
      <trkpt lat="43.77446" lon="3.79688">
        <ele>464</ele>
        <time>2016-09-29T12:07:46Z</time>
      </trkpt>
      <trkpt lat="43.77445" lon="3.79676">
        <ele>466</ele>
        <time>2016-09-29T12:07:52Z</time>
      </trkpt>
      <trkpt lat="43.77443" lon="3.79671">
        <ele>465</ele>
        <time>2016-09-29T12:07:58Z</time>
      </trkpt>
      <trkpt lat="43.7744" lon="3.79656">
        <ele>463</ele>
        <time>2016-09-29T12:08:07Z</time>
      </trkpt>
      <trkpt lat="43.77439" lon="3.7965">
        <ele>461</ele>
        <time>2016-09-29T12:08:13Z</time>
      </trkpt>
      <trkpt lat="43.77435" lon="3.79638">
        <ele>457</ele>
        <time>2016-09-29T12:08:24Z</time>
      </trkpt>
      <trkpt lat="43.77431" lon="3.79626">
        <ele>457</ele>
        <time>2016-09-29T12:08:30Z</time>
      </trkpt>
      <trkpt lat="43.77429" lon="3.79619">
        <ele>454</ele>
        <time>2016-09-29T12:08:42Z</time>
      </trkpt>
      <trkpt lat="43.77426" lon="3.79614">
        <ele>453</ele>
        <time>2016-09-29T12:08:49Z</time>
      </trkpt>
      <trkpt lat="43.77422" lon="3.7961">
        <ele>452</ele>
        <time>2016-09-29T12:08:58Z</time>
      </trkpt>
      <trkpt lat="43.77412" lon="3.79604">
        <ele>452</ele>
        <time>2016-09-29T12:09:06Z</time>
      </trkpt>
      <trkpt lat="43.77408" lon="3.79602">
        <ele>453</ele>
        <time>2016-09-29T12:09:12Z</time>
      </trkpt>
      <trkpt lat="43.77404" lon="3.79597">
        <ele>453</ele>
        <time>2016-09-29T12:09:19Z</time>
      </trkpt>
      <trkpt lat="43.77398" lon="3.79585">
        <ele>448</ele>
        <time>2016-09-29T12:09:29Z</time>
      </trkpt>
      <trkpt lat="43.77395" lon="3.79572">
        <ele>446</ele>
        <time>2016-09-29T12:09:35Z</time>
      </trkpt>
      <trkpt lat="43.7739" lon="3.79568">
        <ele>444</ele>
        <time>2016-09-29T12:09:42Z</time>
      </trkpt>
      <trkpt lat="43.77386" lon="3.79557">
        <ele>445</ele>
        <time>2016-09-29T12:09:49Z</time>
      </trkpt>
      <trkpt lat="43.7738" lon="3.79547">
        <ele>448</ele>
        <time>2016-09-29T12:09:57Z</time>
      </trkpt>
      <trkpt lat="43.77378" lon="3.79541">
        <ele>446</ele>
        <time>2016-09-29T12:10:05Z</time>
      </trkpt>
      <trkpt lat="43.77375" lon="3.79529">
        <ele>446</ele>
        <time>2016-09-29T12:10:12Z</time>
      </trkpt>
      <trkpt lat="43.77371" lon="3.79513">
        <ele>443</ele>
        <time>2016-09-29T12:10:20Z</time>
      </trkpt>
      <trkpt lat="43.7737" lon="3.79507">
        <ele>443</ele>
        <time>2016-09-29T12:10:26Z</time>
      </trkpt>
      <trkpt lat="43.77363" lon="3.79496">
        <ele>445</ele>
        <time>2016-09-29T12:10:32Z</time>
      </trkpt>
      <trkpt lat="43.77359" lon="3.7949">
        <ele>442</ele>
        <time>2016-09-29T12:10:40Z</time>
      </trkpt>
      <trkpt lat="43.77356" lon="3.79479">
        <ele>442</ele>
        <time>2016-09-29T12:10:49Z</time>
      </trkpt>
      <trkpt lat="43.77353" lon="3.79474">
        <ele>442</ele>
        <time>2016-09-29T12:10:55Z</time>
      </trkpt>
      <trkpt lat="43.77349" lon="3.79469">
        <ele>445</ele>
        <time>2016-09-29T12:11:01Z</time>
      </trkpt>
      <trkpt lat="43.77346" lon="3.79456">
        <ele>440</ele>
        <time>2016-09-29T12:11:11Z</time>
      </trkpt>
      <trkpt lat="43.77342" lon="3.79443">
        <ele>436</ele>
        <time>2016-09-29T12:11:22Z</time>
      </trkpt>
      <trkpt lat="43.77336" lon="3.79432">
        <ele>435</ele>
        <time>2016-09-29T12:11:33Z</time>
      </trkpt>
      <trkpt lat="43.77332" lon="3.79427">
        <ele>435</ele>
        <time>2016-09-29T12:11:40Z</time>
      </trkpt>
      <trkpt lat="43.77326" lon="3.7942">
        <ele>434</ele>
        <time>2016-09-29T12:11:49Z</time>
      </trkpt>
      <trkpt lat="43.77321" lon="3.79419">
        <ele>429</ele>
        <time>2016-09-29T12:12:31Z</time>
      </trkpt>
      <trkpt lat="43.77315" lon="3.79419">
        <ele>430</ele>
        <time>2016-09-29T12:12:42Z</time>
      </trkpt>
      <trkpt lat="43.7731" lon="3.79413">
        <ele>429</ele>
        <time>2016-09-29T12:12:49Z</time>
      </trkpt>
      <trkpt lat="43.7731" lon="3.79406">
        <ele>426</ele>
        <time>2016-09-29T12:13:02Z</time>
      </trkpt>
      <trkpt lat="43.77307" lon="3.794">
        <ele>424</ele>
        <time>2016-09-29T12:13:12Z</time>
      </trkpt>
      <trkpt lat="43.77301" lon="3.79386">
        <ele>420</ele>
        <time>2016-09-29T12:13:24Z</time>
      </trkpt>
      <trkpt lat="43.77304" lon="3.79374">
        <ele>416</ele>
        <time>2016-09-29T12:13:34Z</time>
      </trkpt>
      <trkpt lat="43.77302" lon="3.79363">
        <ele>414</ele>
        <time>2016-09-29T12:13:47Z</time>
      </trkpt>
      <trkpt lat="43.77302" lon="3.79354">
        <ele>414</ele>
        <time>2016-09-29T12:13:53Z</time>
      </trkpt>
      <trkpt lat="43.773" lon="3.79348">
        <ele>412</ele>
        <time>2016-09-29T12:14:06Z</time>
      </trkpt>
      <trkpt lat="43.77301" lon="3.7934">
        <ele>411</ele>
        <time>2016-09-29T12:14:12Z</time>
      </trkpt>
      <trkpt lat="43.77298" lon="3.79333">
        <ele>408</ele>
        <time>2016-09-29T12:14:19Z</time>
      </trkpt>
      <trkpt lat="43.77296" lon="3.79321">
        <ele>410</ele>
        <time>2016-09-29T12:14:31Z</time>
      </trkpt>
      <trkpt lat="43.77294" lon="3.79315">
        <ele>406</ele>
        <time>2016-09-29T12:14:37Z</time>
      </trkpt>
      <trkpt lat="43.77292" lon="3.79309">
        <ele>401</ele>
        <time>2016-09-29T12:14:49Z</time>
      </trkpt>
      <trkpt lat="43.77291" lon="3.79302">
        <ele>400</ele>
        <time>2016-09-29T12:14:56Z</time>
      </trkpt>
      <trkpt lat="43.77288" lon="3.7929">
        <ele>394</ele>
        <time>2016-09-29T12:15:11Z</time>
      </trkpt>
      <trkpt lat="43.77285" lon="3.79284">
        <ele>393</ele>
        <time>2016-09-29T12:15:21Z</time>
      </trkpt>
      <trkpt lat="43.77282" lon="3.79279">
        <ele>391</ele>
        <time>2016-09-29T12:15:29Z</time>
      </trkpt>
      <trkpt lat="43.77276" lon="3.7927">
        <ele>386</ele>
        <time>2016-09-29T12:15:43Z</time>
      </trkpt>
      <trkpt lat="43.77272" lon="3.79263">
        <ele>385</ele>
        <time>2016-09-29T12:15:49Z</time>
      </trkpt>
      <trkpt lat="43.77268" lon="3.79258">
        <ele>384</ele>
        <time>2016-09-29T12:15:55Z</time>
      </trkpt>
      <trkpt lat="43.77259" lon="3.79249">
        <ele>384</ele>
        <time>2016-09-29T12:16:05Z</time>
      </trkpt>
      <trkpt lat="43.77251" lon="3.79241">
        <ele>384</ele>
        <time>2016-09-29T12:16:18Z</time>
      </trkpt>
      <trkpt lat="43.77246" lon="3.79238">
        <ele>387</ele>
        <time>2016-09-29T12:16:24Z</time>
      </trkpt>
      <trkpt lat="43.77243" lon="3.79228">
        <ele>388</ele>
        <time>2016-09-29T12:16:34Z</time>
      </trkpt>
      <trkpt lat="43.77239" lon="3.79225">
        <ele>382</ele>
        <time>2016-09-29T12:16:40Z</time>
      </trkpt>
      <trkpt lat="43.77232" lon="3.79224">
        <ele>377</ele>
        <time>2016-09-29T12:17:05Z</time>
      </trkpt>
      <trkpt lat="43.77222" lon="3.79228">
        <ele>377</ele>
        <time>2016-09-29T12:17:18Z</time>
      </trkpt>
      <trkpt lat="43.77214" lon="3.79233">
        <ele>377</ele>
        <time>2016-09-29T12:17:24Z</time>
      </trkpt>
      <trkpt lat="43.77209" lon="3.7923">
        <ele>373</ele>
        <time>2016-09-29T12:17:33Z</time>
      </trkpt>
      <trkpt lat="43.772" lon="3.79226">
        <ele>370</ele>
        <time>2016-09-29T12:17:39Z</time>
      </trkpt>
      <trkpt lat="43.77196" lon="3.79222">
        <ele>373</ele>
        <time>2016-09-29T12:17:46Z</time>
      </trkpt>
      <trkpt lat="43.77194" lon="3.79208">
        <ele>366</ele>
        <time>2016-09-29T12:17:52Z</time>
      </trkpt>
      <trkpt lat="43.77192" lon="3.79203">
        <ele>370</ele>
        <time>2016-09-29T12:17:58Z</time>
      </trkpt>
      <trkpt lat="43.77187" lon="3.79188">
        <ele>367</ele>
        <time>2016-09-29T12:18:09Z</time>
      </trkpt>
      <trkpt lat="43.77182" lon="3.79176">
        <ele>366</ele>
        <time>2016-09-29T12:18:19Z</time>
      </trkpt>
      <trkpt lat="43.77181" lon="3.7917">
        <ele>365</ele>
        <time>2016-09-29T12:18:28Z</time>
      </trkpt>
      <trkpt lat="43.77172" lon="3.79162">
        <ele>364</ele>
        <time>2016-09-29T12:18:38Z</time>
      </trkpt>
      <trkpt lat="43.77164" lon="3.79156">
        <ele>363</ele>
        <time>2016-09-29T12:18:45Z</time>
      </trkpt>
      <trkpt lat="43.77157" lon="3.79152">
        <ele>360</ele>
        <time>2016-09-29T12:18:58Z</time>
      </trkpt>
      <trkpt lat="43.77149" lon="3.79146">
        <ele>356</ele>
        <time>2016-09-29T12:19:10Z</time>
      </trkpt>
      <trkpt lat="43.7714" lon="3.79141">
        <ele>353</ele>
        <time>2016-09-29T12:19:18Z</time>
      </trkpt>
      <trkpt lat="43.77131" lon="3.79139">
        <ele>352</ele>
        <time>2016-09-29T12:19:28Z</time>
      </trkpt>
      <trkpt lat="43.77122" lon="3.79137">
        <ele>352</ele>
        <time>2016-09-29T12:19:36Z</time>
      </trkpt>
      <trkpt lat="43.77117" lon="3.7913">
        <ele>354</ele>
        <time>2016-09-29T12:19:42Z</time>
      </trkpt>
      <trkpt lat="43.77111" lon="3.79125">
        <ele>353</ele>
        <time>2016-09-29T12:19:49Z</time>
      </trkpt>
      <trkpt lat="43.77107" lon="3.79128">
        <ele>350</ele>
        <time>2016-09-29T12:19:55Z</time>
      </trkpt>
      <trkpt lat="43.77102" lon="3.7913">
        <ele>349</ele>
        <time>2016-09-29T12:20:03Z</time>
      </trkpt>
      <trkpt lat="43.77101" lon="3.79137">
        <ele>351</ele>
        <time>2016-09-29T12:20:09Z</time>
      </trkpt>
      <trkpt lat="43.77096" lon="3.79149">
        <ele>350</ele>
        <time>2016-09-29T12:20:17Z</time>
      </trkpt>
      <trkpt lat="43.77089" lon="3.79159">
        <ele>344</ele>
        <time>2016-09-29T12:20:25Z</time>
      </trkpt>
      <trkpt lat="43.77085" lon="3.79163">
        <ele>344</ele>
        <time>2016-09-29T12:20:33Z</time>
      </trkpt>
      <trkpt lat="43.77077" lon="3.79169">
        <ele>341</ele>
        <time>2016-09-29T12:20:43Z</time>
      </trkpt>
      <trkpt lat="43.77072" lon="3.7918">
        <ele>342</ele>
        <time>2016-09-29T12:20:52Z</time>
      </trkpt>
      <trkpt lat="43.77068" lon="3.79194">
        <ele>340</ele>
        <time>2016-09-29T12:21:03Z</time>
      </trkpt>
      <trkpt lat="43.77061" lon="3.7921">
        <ele>341</ele>
        <time>2016-09-29T12:21:12Z</time>
      </trkpt>
      <trkpt lat="43.77062" lon="3.79217">
        <ele>340</ele>
        <time>2016-09-29T12:21:21Z</time>
      </trkpt>
      <trkpt lat="43.77064" lon="3.79231">
        <ele>344</ele>
        <time>2016-09-29T12:21:27Z</time>
      </trkpt>
      <trkpt lat="43.77063" lon="3.79245">
        <ele>344</ele>
        <time>2016-09-29T12:21:37Z</time>
      </trkpt>
      <trkpt lat="43.7706" lon="3.79259">
        <ele>341</ele>
        <time>2016-09-29T12:21:46Z</time>
      </trkpt>
      <trkpt lat="43.77057" lon="3.79274">
        <ele>344</ele>
        <time>2016-09-29T12:21:52Z</time>
      </trkpt>
      <trkpt lat="43.77055" lon="3.7928">
        <ele>342</ele>
        <time>2016-09-29T12:22:00Z</time>
      </trkpt>
      <trkpt lat="43.77052" lon="3.79292">
        <ele>345</ele>
        <time>2016-09-29T12:22:08Z</time>
      </trkpt>
    </trkseg>
  </trk>
</gpx>